Data for 09/17/2011

Time Sea-Level Adjusted Pressure Absolute Pressure Temperature Relative Humidity Dew Point Precipitation   
(mb) (inHg) (mb) (inHg) (C) (F) (%) (C) (F) (mm) (in)
00:01 1017 30.03 846 24.98 7.7 45.9 91 6.3 43.4 -87.1 -3.429
00:02 1017 30.03 846 24.98 7.6 45.7 90 6.1 42.9 -87.1 -3.429
00:03 1017 30.03 846 24.98 7.4 45.4 91 6.1 42.9 -87.1 -3.429
00:04 1017 30.03 846 24.98 7.3 45.2 92 6.1 43 -87.1 -3.429
00:05 1017 30.03 846 24.98 7.3 45.1 93 6.1 43 -87.2 -3.433
00:06 1017 30.03 846 24.98 7.2 45 93 6.2 43.1 -87.2 -3.433
00:07 1017 30.03 846 24.98 7.2 45 94 6.3 43.3 -87.2 -3.433
00:08 1017 30.03 846 24.98 7.2 45 93 6.2 43.2 -87.2 -3.433
00:09 1017 30.03 846 24.98 7.2 44.9 93 6.1 43.1 -87.2 -3.433
00:10 1017 30.03 846 24.98 7.1 44.8 93 6.1 43 -87.2 -3.433
00:11 1017 30.03 846 24.98 7.1 44.8 93 6.1 42.9 -87.3 -3.437
00:12 1017 30.03 846 24.98 7 44.6 93 6 42.8 -87.3 -3.437
00:13 1017 30.03 846 24.98 6.9 44.5 93 5.9 42.6 -87.3 -3.437
00:14 1017 30.03 846 24.98 6.8 44.3 94 5.9 42.6 -87.3 -3.437
00:15 1017 30.03 846 24.98 6.8 44.2 94 5.8 42.5 -87.3 -3.437
00:16 1017 30.03 846 24.98 6.7 44.1 95 5.9 42.6 -87.3 -3.437
00:17 1017 30.03 846 24.98 6.7 44.1 95 6 42.8 -87.3 -3.437
00:18 1017 30.03 846 24.98 6.7 44.1 95 5.9 42.7 -87.3 -3.437
00:19 1017 30.03 846 24.98 6.7 44.1 96 6.1 43 -87.3 -3.437
00:20 1017 30.03 846 24.98 6.9 44.4 96 6.3 43.3 -87.3 -3.437
00:21 1017 30.03 846 24.98 6.9 44.4 95 6.2 43.1 -87.3 -3.437
00:22 1017 30.03 846 24.98 6.8 44.3 95 6 42.9 -87.3 -3.437
00:23 1017 30.03 846 24.98 6.9 44.4 96 6.2 43.2 -87.3 -3.437
00:24 1017 30.03 846 24.98 7 44.6 96 6.3 43.4 -87.3 -3.437
00:25 1017 30.03 846 24.98 7.1 44.8 95 6.4 43.5 -87.3 -3.437
00:26 1017 30.03 846 24.98 7.1 44.7 94 6.2 43.2 -87.3 -3.437
00:27 1017 30.03 846 24.98 7 44.6 94 6 42.9 -87.3 -3.437
00:28 1017 30.03 846 24.98 6.9 44.4 93 5.8 42.5 -87.3 -3.437
00:29 1017 30.03 846 24.98 6.7 44.1 94 5.7 42.3 -87.3 -3.437
00:30 1017 30.03 846 24.98 6.6 43.9 94 5.7 42.3 -87.3 -3.437
00:31 1017 30.03 846 24.98 6.6 43.8 94 5.7 42.3 -87.3 -3.437
00:32 1017 30.03 846 24.98 6.5 43.8 94 5.7 42.2 -87.3 -3.437
00:33 1017 30.03 846 24.98 6.5 43.7 94 5.6 42.1 -87.3 -3.437
00:34 1017 30.03 846 24.98 6.4 43.6 94 5.6 42 -87.3 -3.437
00:35 1017 30.03 846 24.98 6.4 43.4 94 5.5 41.9 -87.3 -3.437
00:36 1017 30.03 846 24.98 6.3 43.4 95 5.5 42 -87.3 -3.437
00:37 1017 30.03 846 24.98 6.3 43.4 95 5.6 42 -87.3 -3.437
00:38 1017 30.03 846 24.98 6.3 43.4 95 5.6 42.2 -87.3 -3.437
00:39 1017 30.03 846 24.98 6.3 43.4 95 5.6 42.1 -87.3 -3.437
00:40 1017 30.03 846 24.98 6.3 43.4 96 5.7 42.2 -87.3 -3.437
00:41 1017 30.03 846 24.98 6.3 43.3 95 5.6 42.1 -87.3 -3.437
00:42 1017 30.03 846 24.98 6.3 43.3 95 5.6 42.1 -87.3 -3.437
00:43 1017 30.03 846 24.98 6.3 43.3 96 5.6 42.1 -87.3 -3.437
00:44 1017 30.03 846 24.98 6.2 43.2 96 5.6 42.2 -87.3 -3.437
00:45 1017 30.03 846 24.98 6.4 43.4 96 5.8 42.4 -87.3 -3.437
00:46 1017 30.03 846 24.98 6.5 43.6 96 5.9 42.6 -87.3 -3.437
00:47 1017 30.03 846 24.98 6.6 43.9 96 6 42.9 -87.3 -3.437
00:48 1017 30.03 846 24.98 6.7 44.1 96 6.1 43 -87.3 -3.437
00:49 1017 30.03 846 24.98 6.9 44.3 96 6.2 43.2 -87.3 -3.437
00:50 1017 30.03 846 24.98 7 44.6 95 6.3 43.3 -87.3 -3.437
00:51 1017 30.03 846 24.98 7.1 44.7 95 6.3 43.3 -87.3 -3.437
00:52 1017 30.03 846 24.98 7.1 44.8 94 6.3 43.3 -87.3 -3.437
00:53 1017 30.03 846 24.98 7.1 44.8 95 6.3 43.4 -87.3 -3.437
00:54 1017 30.03 846 24.98 7.2 44.9 95 6.4 43.5 -87.3 -3.437
00:55 1017 30.03 846 24.98 7.2 45 94 6.4 43.5 -87.4 -3.441
00:56 1017 30.03 846 24.98 7.2 45 93 6.2 43.2 -87.4 -3.441
00:57 1017 30.03 846 24.98 7.1 44.8 93 6 42.9 -87.4 -3.441
00:58 1017 30.03 846 24.98 7.1 44.7 94 6.1 43 -87.4 -3.441
00:59 1017 30.03 846 24.98 7 44.6 94 6 42.9 -87.5 -3.445
01:00 1017 30.03 846 24.98 6.9 44.5 93 5.9 42.7 -87.5 -3.445
01:01 1017 30.03 846 24.98 6.9 44.4 94 5.9 42.6 -87.5 -3.445
01:02 1017 30.03 846 24.98 6.8 44.3 94 6 42.7 -87.5 -3.445
01:03 1017 30.03 846 24.98 6.8 44.2 94 6 42.7 -87.5 -3.445
01:04 1017 30.03 846 24.98 6.8 44.3 94 6 42.7 -87.5 -3.445
01:05 1017 30.03 846 24.98 6.7 44.1 94 5.8 42.5 -87.5 -3.445
01:06 1017 30.03 846 24.98 6.6 43.9 94 5.8 42.4 -87.5 -3.445
01:07 1017 30.03 846 24.98 6.6 43.9 94 5.8 42.4 -87.5 -3.445
01:08 1017 30.03 846 24.98 6.5 43.8 94 5.7 42.2 -87.5 -3.445
01:09 1017 30.03 846 24.98 6.4 43.6 94 5.6 42 -87.5 -3.445
01:10 1017 30.03 846 24.98 6.4 43.5 94 5.6 42.1 -87.5 -3.445
01:11 1017 30.03 846 24.98 6.4 43.5 94 5.5 42 -87.5 -3.445
01:12 1017 30.03 846 24.98 6.4 43.5 95 5.7 42.2 -87.5 -3.445
01:13 1017 30.03 846 24.98 6.4 43.6 95 5.7 42.3 -87.5 -3.445
01:14 1017 30.03 846 24.98 6.5 43.7 95 5.8 42.4 -87.5 -3.445
01:15 1017 30.03 846 24.98 6.5 43.7 95 5.8 42.4 -87.5 -3.445
01:16 1017 30.03 846 24.98 6.5 43.8 95 5.8 42.5 -87.5 -3.445
01:17 1017 30.03 846 24.98 6.6 43.9 95 5.9 42.6 -87.5 -3.445
01:18 1017 30.03 846 24.98 6.6 43.9 95 5.9 42.6 -87.5 -3.445
01:19 1017 30.03 846 24.98 6.7 44 95 6 42.7 -87.5 -3.445
01:20 1017 30.03 846 24.98 6.7 44.1 95 6 42.7 -87.5 -3.445
01:21 1017 30.03 846 24.98 6.7 44.1 95 5.9 42.6 -87.5 -3.445
01:22 1017 30.03 846 24.98 6.7 44 94 5.8 42.5 -87.5 -3.445
01:23 1017 30.03 846 24.98 6.7 44 94 5.8 42.4 -87.5 -3.445
01:24 1017 30.03 846 24.98 6.6 43.9 94 5.7 42.3 -87.5 -3.445
01:25 1017 30.03 846 24.98 6.5 43.8 94 5.7 42.2 -87.5 -3.445
01:26 1017 30.03 846 24.98 6.5 43.7 94 5.6 42.2 -87.5 -3.445
01:27 1017 30.03 846 24.98 6.5 43.6 94 5.6 42.1 -87.5 -3.445
01:28 1017 30.03 846 24.98 6.4 43.5 94 5.5 41.9 -87.5 -3.445
01:29 1017 30.03 846 24.98 6.3 43.3 94 5.4 41.7 -87.5 -3.445
01:30 1017 30.03 846 24.98 6.2 43.2 94 5.4 41.7 -87.5 -3.445
01:31 1017 30.03 846 24.98 6.2 43.2 95 5.5 41.9 -87.5 -3.445
01:32 1017 30.03 846 24.98 6.3 43.3 95 5.6 42 -87.5 -3.445
01:33 1017 30.03 846 24.98 6.3 43.3 95 5.6 42 -87.5 -3.445
01:34 1017 30.03 846 24.98 6.3 43.3 95 5.6 42 -87.5 -3.445
01:35 1017 30.03 846 24.98 6.3 43.4 95 5.6 42.1 -87.5 -3.445
01:36 1017 30.03 846 24.98 6.3 43.3 95 5.6 42 -87.5 -3.445
01:37 1017 30.03 846 24.98 6.2 43.2 95 5.5 41.9 -87.5 -3.445
01:38 1017 30.03 846 24.98 6.2 43.2 95 5.6 42 -87.5 -3.445
01:39 1017 30.03 846 24.98 6.3 43.3 96 5.6 42.1 -87.5 -3.445
01:40 1017 30.03 846 24.98 6.4 43.4 96 5.7 42.3 -87.5 -3.445
01:41 1017 30.03 846 24.98 6.4 43.5 96 5.8 42.4 -87.5 -3.445
01:42 1017 30.03 846 24.98 6.5 43.6 96 5.9 42.6 -87.6 -3.449
01:43 1017 30.03 846 24.98 6.6 43.9 96 6 42.9 -87.6 -3.449
01:44 1017 30.03 846 24.98 6.8 44.2 96 6.1 43.1 -87.5 -3.445
01:45 1017 30.03 846 24.98 6.8 44.3 95 6.2 43.1 -87.5 -3.445
01:46 1017 30.03 846 24.98 6.9 44.5 95 6.2 43.2 -87.5 -3.445
01:47 1017 30.03 846 24.98 7 44.6 95 6.2 43.2 -87.5 -3.445
01:48 1017 30.03 846 24.98 7.1 44.8 94 6.3 43.3 -87.5 -3.445
01:49 1017 30.03 846 24.98 7.2 44.9 94 6.2 43.2 -87.6 -3.449
01:50 1017 30.03 846 24.98 7.3 45.2 93 6.3 43.3 -87.6 -3.449
01:51 1017 30.03 846 24.98 7.5 45.5 92 6.3 43.4 -87.6 -3.449
01:52 1017 30.03 846 24.98 7.5 45.5 92 6.3 43.3 -87.6 -3.449
01:53 1017 30.03 846 24.98 7.5 45.4 92 6.3 43.3 -87.6 -3.449
01:54 1017 30.03 846 24.98 7.4 45.4 92 6.3 43.3 -87.6 -3.449
01:55 1017 30.03 846 24.98 7.4 45.2 93 6.2 43.2 -87.7 -3.453
01:56 1017 30.03 846 24.98 7.3 45.1 93 6.2 43.2 -87.8 -3.457
01:57 1017 30.03 846 24.98 7.3 45.1 94 6.3 43.3 -87.8 -3.457
01:58 1017 30.03 846 24.98 7.3 45.1 94 6.3 43.4 -87.8 -3.457
01:59 1017 30.03 846 24.98 7.2 45 94 6.3 43.3 -87.8 -3.457
02:00 1017 30.03 846 24.98 7.3 45.1 94 6.4 43.4 -87.8 -3.457
02:01 1017 30.03 846 24.98 7.3 45.1 94 6.3 43.4 -87.8 -3.457
02:02 1017 30.03 846 24.98 7.3 45.1 94 6.3 43.4 -87.9 -3.461
02:03 1017 30.03 846 24.98 7.3 45.1 94 6.3 43.4 -87.9 -3.461
02:04 1017 30.03 846 24.98 7.3 45.1 94 6.3 43.4 -87.9 -3.461
02:05 1017 30.03 846 24.98 7.3 45.1 94 6.3 43.4 -87.8 -3.457
02:06 1017 30.03 846 24.98 7.3 45.1 94 6.3 43.4 -87.8 -3.457
02:07 1017 30.03 846 24.98 7.3 45.1 94 6.3 43.3 -87.8 -3.457
02:08 1017 30.03 846 24.98 7.2 45 93 6.2 43.2 -87.8 -3.457
02:09 1017 30.03 846 24.98 7.2 45 94 6.3 43.3 -87.8 -3.457
02:10 1017 30.03 846 24.98 7.2 44.9 94 6.3 43.3 -87.8 -3.457
02:11 1017 30.03 846 24.98 7.2 45 94 6.3 43.4 -87.8 -3.457
02:12 1017 30.03 846 24.98 7.3 45.1 94 6.4 43.5 -87.8 -3.457
02:13 1017 30.03 846 24.98 7.3 45.1 94 6.4 43.5 -87.8 -3.457
02:14 1017 30.03 846 24.98 7.4 45.2 94 6.5 43.7 -87.8 -3.457
02:15 1017 30.03 846 24.98 7.4 45.3 94 6.5 43.7 -87.8 -3.457
02:16 1017 30.03 846 24.98 7.4 45.4 94 6.6 43.8 -87.8 -3.457
02:17 1017 30.03 846 24.98 7.5 45.4 94 6.6 43.9 -87.8 -3.457
02:18 1017 30.03 846 24.98 7.5 45.5 94 6.6 43.9 -87.8 -3.457
02:19 1017 30.03 846 24.98 7.5 45.6 94 6.6 43.9 -87.8 -3.457
02:20 1017 30.03 846 24.98 7.6 45.6 94 6.6 43.9 -87.8 -3.457
02:21 1017 30.03 846 24.98 7.6 45.6 94 6.6 43.8 -87.8 -3.457
02:22 1017 30.03 846 24.98 7.6 45.6 94 6.6 43.9 -87.8 -3.457
02:23 1017 30.03 846 24.98 7.5 45.6 94 6.6 43.8 -87.8 -3.457
02:24 1017 30.03 846 24.98 7.5 45.6 93 6.5 43.8 -87.8 -3.457
02:25 1017 30.03 846 24.98 7.5 45.5 93 6.5 43.8 -87.8 -3.457
02:26 1017 30.03 846 24.98 7.5 45.5 93 6.5 43.7 -87.8 -3.457
02:27 1017 30.03 846 24.98 7.5 45.4 93 6.5 43.6 -87.8 -3.457
02:28 1017 30.03 846 24.98 7.4 45.4 93 6.4 43.6 -87.8 -3.457
02:29 1017 30.03 846 24.98 7.4 45.4 94 6.5 43.6 -87.8 -3.457
02:30 1017 30.03 846 24.98 7.4 45.2 94 6.4 43.6 -87.8 -3.457
02:31 1017 30.03 846 24.98 7.4 45.3 94 6.5 43.6 -87.8 -3.457
02:32 1017 30.03 846 24.98 7.4 45.3 94 6.5 43.7 -87.8 -3.457
02:33 1017 30.03 846 24.98 7.4 45.3 94 6.5 43.8 -87.8 -3.457
02:34 1017 30.03 846 24.98 7.5 45.4 94 6.6 43.9 -87.8 -3.457
02:35 1017 30.03 846 24.98 7.4 45.3 94 6.6 43.8 -87.8 -3.457
02:36 1017 30.03 846 24.98 7.4 45.4 94 6.6 43.9 -87.8 -3.457
02:37 1017 30.03 846 24.98 7.5 45.5 95 6.7 44 -87.8 -3.457
02:38 1017 30.03 846 24.98 7.5 45.5 95 6.7 44.1 -87.8 -3.457
02:39 1017 30.03 846 24.98 7.5 45.5 95 6.7 44 -87.9 -3.461
02:40 1017 30.03 846 24.98 7.5 45.6 95 6.8 44.2 -87.9 -3.461
02:41 1017 30.03 846 24.98 7.6 45.6 95 6.7 44.1 -87.9 -3.461
02:42 1017 30.03 846 24.98 7.6 45.7 95 6.8 44.2 -87.9 -3.461
02:43 1017 30.03 846 24.98 7.7 45.8 95 6.8 44.3 -87.8 -3.457
02:44 1017 30.03 846 24.98 7.7 45.9 95 6.9 44.4 -87.7 -3.453
02:45 1017 30.03 846 24.98 7.8 46 94 6.8 44.3 -87.6 -3.449
02:46 1017 30.03 846 24.98 7.8 46 94 6.8 44.3 -87.5 -3.445
02:47 1017 30.03 846 24.98 7.9 46.1 94 6.9 44.4 -87.5 -3.445
02:48 1017 30.03 846 24.98 7.9 46.2 94 6.9 44.4 -87.5 -3.445
02:49 1017 30.03 846 24.98 7.9 46.2 93 6.9 44.4 -87.5 -3.445
02:50 1017 30.03 846 24.98 7.9 46.3 93 6.9 44.5 -87.5 -3.445
02:51 1017 30.03 846 24.98 8 46.4 93 6.9 44.4 -87.5 -3.445
02:52 1017 30.03 846 24.98 8 46.4 92 6.9 44.4 -87.5 -3.445
02:53 1017 30.03 846 24.98 8.1 46.5 92 6.9 44.4 -87.5 -3.445
02:54 1017 30.03 846 24.98 8.1 46.7 92 6.9 44.4 -87.5 -3.445
02:55 1017 30.03 846 24.98 8.1 46.6 92 6.9 44.5 -87.5 -3.445
02:56 1017 30.03 846 24.98 8.1 46.6 92 6.9 44.4 -87.5 -3.445
02:57 1017 30.03 846 24.98 8.1 46.6 92 6.9 44.4 -87.5 -3.445
02:58 1017 30.03 846 24.98 8.2 46.7 92 7 44.5 -87.5 -3.445
02:59 1017 30.03 846 24.98 8.2 46.7 92 7 44.5 -87.5 -3.445
03:00 1017 30.03 846 24.98 8.1 46.7 92 6.9 44.5 -87.5 -3.445
03:01 1017 30.03 846 24.98 8.1 46.6 92 6.9 44.4 -87.5 -3.445
03:02 1017 30.03 846 24.98 8.1 46.7 92 6.9 44.4 -87.5 -3.445
03:03 1017 30.03 847 25.01 8.2 46.8 91 6.9 44.4 -87.5 -3.445
03:04 1017 30.03 847 25.01 8.3 46.9 91 6.9 44.5 -87.6 -3.449
03:05 1017 30.03 847 25.01 8.3 46.9 92 7 44.5 -87.6 -3.449
03:06 1017 30.03 847 25.01 8.2 46.8 92 7 44.6 -87.6 -3.449
03:07 1017 30.03 847 25.01 8.3 46.9 92 7 44.6 -87.6 -3.449
03:08 1017 30.03 847 25.01 8.3 46.9 92 7 44.7 -87.6 -3.449
03:09 1017 30.03 847 25.01 8.3 46.9 92 7 44.6 -87.6 -3.449
03:10 1017 30.03 846 24.98 8.3 46.9 92 7 44.6 -87.6 -3.449
03:11 1017 30.03 846 24.98 8.4 47 91 7 44.5 -87.6 -3.449
03:12 1017 30.03 846 24.98 8.5 47.3 91 7.1 44.8 -87.6 -3.449
03:13 1017 30.03 846 24.98 8.5 47.3 91 7.1 44.8 -87.6 -3.449
03:14 1017 30.03 846 24.98 8.5 47.3 90 7 44.7 -87.6 -3.449
03:15 1017 30.03 846 24.98 8.5 47.3 90 6.9 44.5 -87.6 -3.449
03:16 1017 30.03 846 24.98 8.5 47.4 90 7 44.6 -87.6 -3.449
03:17 1017 30.03 846 24.98 8.5 47.4 90 7 44.6 -87.6 -3.449
03:18 1017 30.03 846 24.98 8.5 47.3 91 7.1 44.7 -87.6 -3.449
03:19 1017 30.03 846 24.98 8.6 47.4 91 7.1 44.8 -87.6 -3.449
03:20 1017 30.03 846 24.98 8.5 47.4 91 7.2 44.9 -87.6 -3.449
03:21 1017 30.03 846 24.98 8.5 47.2 92 7.2 45 -87.6 -3.449
03:22 1017 30.03 846 24.98 8.4 47.1 92 7.2 44.9 -87.6 -3.449
03:23 1017 30.03 846 24.98 8.4 47.1 92 7.2 45 -87.6 -3.449
03:24 1017 30.03 846 24.98 8.4 47.1 93 7.2 45 -87.6 -3.449
03:25 1017 30.03 846 24.98 8.3 47 93 7.3 45.1 -87.6 -3.449
03:26 1017 30.03 846 24.98 8.3 47 93 7.3 45.1 -87.6 -3.449
03:27 1017 30.03 846 24.98 8.3 47 93 7.3 45.2 -87.6 -3.449
03:28 1017 30.03 846 24.98 8.3 47 94 7.3 45.2 -87.6 -3.449
03:29 1017 30.03 846 24.98 8.4 47 94 7.4 45.3 -87.6 -3.449
03:30 1017 30.03 846 24.98 8.4 47 94 7.4 45.3 -87.6 -3.449
03:31 1017 30.03 846 24.98 8.3 46.9 94 7.3 45.2 -87.6 -3.449
03:32 1017 30.03 846 24.98 8.3 47 94 7.3 45.2 -87.6 -3.449
03:33 1017 30.03 846 24.98 8.3 46.9 94 7.3 45.2 -87.6 -3.449
03:34 1017 30.03 846 24.98 8.3 46.9 94 7.3 45.2 -87.6 -3.449
03:35 1017 30.03 846 24.98 8.3 46.9 94 7.3 45.2 -87.6 -3.449
03:36 1017 30.03 846 24.98 8.2 46.8 94 7.3 45.1 -87.6 -3.449
03:37 1017 30.03 846 24.98 8.2 46.8 94 7.3 45.2 -87.6 -3.449
03:38 1017 30.03 846 24.98 8.2 46.8 94 7.3 45.1 -87.6 -3.449
03:39 1017 30.03 846 24.98 8.2 46.8 94 7.3 45.1 -87.6 -3.449
03:40 1017 30.03 846 24.98 8.2 46.7 94 7.3 45.1 -87.6 -3.449
03:41 1017 30.03 846 24.98 8.1 46.6 94 7.2 45 -87.6 -3.449
03:42 1017 30.03 846 24.98 8.1 46.5 94 7.2 45 -87.6 -3.449
03:43 1017 30.03 846 24.98 8.1 46.6 94 7.2 45 -87.6 -3.449
03:44 1017 30.03 846 24.98 8.1 46.5 95 7.3 45.1 -87.6 -3.449
03:45 1017 30.03 847 25.01 8.1 46.5 95 7.3 45.1 -87.6 -3.449
03:46 1017 30.03 847 25.01 8.1 46.5 95 7.3 45.2 -87.6 -3.449
03:47 1017 30.03 847 25.01 8.1 46.6 95 7.4 45.3 -87.6 -3.449
03:48 1017 30.03 847 25.01 8.1 46.6 95 7.4 45.4 -87.7 -3.453
03:49 1017 30.03 847 25.01 8.2 46.7 96 7.5 45.5 -87.7 -3.453
03:50 1018 30.06 847 25.01 8.3 46.9 96 7.6 45.7 -87.7 -3.453
03:51 1018 30.06 847 25.01 8.3 46.9 96 7.6 45.7 -87.7 -3.453
03:52 1018 30.06 847 25.01 8.3 46.9 96 7.6 45.7 -87.7 -3.453
03:53 1018 30.06 847 25.01 8.4 47 95 7.7 45.8 -87.6 -3.449
03:54 1017 30.03 847 25.01 8.4 47.1 96 7.7 45.9 -87.6 -3.449
03:55 1017 30.03 847 25.01 8.4 47.1 95 7.7 45.8 -87.6 -3.449
03:56 1017 30.03 847 25.01 8.3 47 96 7.7 45.8 -87.5 -3.445
03:57 1017 30.03 846 24.98 8.3 47 96 7.7 45.8 -87.5 -3.445
03:58 1017 30.03 846 24.98 8.3 47 96 7.7 45.8 -87.5 -3.445
03:59 1017 30.03 846 24.98 8.3 47 96 7.7 45.8 -87.5 -3.445
04:00 1017 30.03 846 24.98 8.3 46.9 96 7.6 45.7 -87.5 -3.445
04:01 1017 30.03 846 24.98 8.3 46.9 96 7.6 45.7 -87.5 -3.445
04:02 1017 30.03 846 24.98 8.3 46.9 96 7.6 45.7 -87.5 -3.445
04:03 1017 30.03 846 24.98 8.3 46.9 96 7.7 45.8 -87.5 -3.445
04:04 1017 30.03 846 24.98 8.3 47 96 7.7 45.8 -87.5 -3.445
04:05 1017 30.03 846 24.98 8.3 46.9 96 7.6 45.7 -87.4 -3.441
04:06 1017 30.03 846 24.98 8.2 46.8 96 7.6 45.7 -87.4 -3.441
04:07 1017 30.03 846 24.98 8.2 46.8 96 7.6 45.6 -87.4 -3.441
04:08 1017 30.03 846 24.98 8.2 46.8 96 7.6 45.7 -87.4 -3.441
04:09 1017 30.03 846 24.98 8.2 46.7 96 7.5 45.6 -87.4 -3.441
04:10 1017 30.03 846 24.98 8.1 46.7 96 7.5 45.6 -87.4 -3.441
04:11 1017 30.03 846 24.98 8.2 46.7 96 7.5 45.6 -87.4 -3.441
04:12 1017 30.03 846 24.98 8.2 46.7 96 7.5 45.6 -87.3 -3.437
04:13 1017 30.03 846 24.98 8.2 46.7 96 7.5 45.6 -87.3 -3.437
04:14 1017 30.03 846 24.98 8.2 46.7 96 7.5 45.5 -87.3 -3.437
04:15 1017 30.03 846 24.98 8.2 46.7 95 7.5 45.4 -87.3 -3.437
04:16 1017 30.03 846 24.98 8.1 46.6 95 7.4 45.3 -87.3 -3.437
04:17 1017 30.03 846 24.98 8.1 46.5 95 7.4 45.2 -87.3 -3.437
04:18 1017 30.03 846 24.98 8.1 46.5 95 7.3 45.2 -87.3 -3.437
04:19 1017 30.03 846 24.98 8 46.4 95 7.2 45 -87.3 -3.437
04:20 1017 30.03 846 24.98 7.9 46.2 95 7.1 44.8 -87.3 -3.437
04:21 1017 30.03 846 24.98 7.8 46.1 95 7.1 44.9 -87.3 -3.437
04:22 1017 30.03 846 24.98 7.7 45.9 96 7.1 44.8 -87.3 -3.437
04:23 1017 30.03 846 24.98 7.8 46 96 7.2 44.9 -87.4 -3.441
04:24 1017 30.03 846 24.98 7.8 46 96 7.2 45 -87.4 -3.441
04:25 1017 30.03 846 24.98 7.9 46.1 96 7.3 45.2 -87.4 -3.441
04:26 1017 30.03 846 24.98 7.8 46.1 96 7.3 45.1 -87.4 -3.441
04:27 1017 30.03 846 24.98 7.8 46.1 96 7.3 45.1 -87.4 -3.441
04:28 1017 30.03 846 24.98 7.9 46.1 96 7.3 45.1 -87.4 -3.441
04:29 1017 30.03 846 24.98 7.8 46 96 7.3 45.1 -87.4 -3.441
04:30 1017 30.03 846 24.98 7.8 46.1 97 7.3 45.2 -87.4 -3.441
04:31 1017 30.03 846 24.98 7.8 46.1 96 7.3 45.2 -87.4 -3.441
04:32 1017 30.03 846 24.98 7.9 46.2 97 7.4 45.3 -87.4 -3.441
04:33 1017 30.03 846 24.98 7.9 46.2 96 7.4 45.2 -87.4 -3.441
04:34 1017 30.03 846 24.98 7.9 46.2 97 7.4 45.3 -87.4 -3.441
04:35 1017 30.03 846 24.98 7.9 46.2 96 7.4 45.3 -87.4 -3.441
04:36 1017 30.03 846 24.98 7.9 46.2 96 7.4 45.3 -87.4 -3.441
04:37 1017 30.03 846 24.98 7.9 46.1 96 7.3 45.2 -87.4 -3.441
04:38 1017 30.03 846 24.98 7.9 46.2 96 7.3 45.2 -87.4 -3.441
04:39 1017 30.03 846 24.98 7.9 46.1 96 7.3 45.2 -87.4 -3.441
04:40 1017 30.03 846 24.98 7.9 46.2 96 7.4 45.3 -87.4 -3.441
04:41 1017 30.03 846 24.98 7.9 46.3 96 7.4 45.3 -87.4 -3.441
04:42 1017 30.03 846 24.98 7.9 46.3 97 7.4 45.3 -87.4 -3.441
04:43 1017 30.03 846 24.98 8 46.4 97 7.5 45.5 -87.4 -3.441
04:44 1017 30.03 846 24.98 8 46.4 97 7.5 45.4 -87.4 -3.441
04:45 1017 30.03 846 24.98 8 46.4 97 7.5 45.5 -87.4 -3.441
04:46 1017 30.03 846 24.98 8 46.4 97 7.5 45.4 -87.4 -3.441
04:47 1017 30.03 846 24.98 8 46.4 97 7.5 45.5 -87.4 -3.441
04:48 1017 30.03 846 24.98 8 46.5 97 7.5 45.5 -87.4 -3.441
04:49 1017 30.03 846 24.98 8 46.4 97 7.5 45.5 -87.4 -3.441
04:50 1017 30.03 846 24.98 8 46.5 97 7.5 45.5 -87.4 -3.441
04:51 1017 30.03 846 24.98 8.1 46.5 97 7.6 45.6 -87.4 -3.441
04:52 1017 30.03 846 24.98 8.1 46.5 96 7.5 45.6 -87.4 -3.441
04:53 1017 30.03 846 24.98 8.1 46.6 96 7.6 45.6 -87.4 -3.441
04:54 1017 30.03 846 24.98 8.1 46.6 97 7.6 45.7 -87.4 -3.441
04:55 1017 30.03 846 24.98 8.1 46.6 96 7.6 45.6 -87.3 -3.437
04:56 1017 30.03 846 24.98 8.1 46.6 97 7.6 45.7 -87.3 -3.437
04:57 1017 30.03 846 24.98 8.1 46.6 97 7.6 45.7 -87.3 -3.437
04:58 1017 30.03 846 24.98 8.1 46.7 96 7.6 45.7 -87.3 -3.437
04:59 1017 30.03 846 24.98 8.2 46.7 96 7.6 45.7 -87.3 -3.437
05:00 1017 30.03 846 24.98 8.2 46.7 96 7.6 45.8 -87.3 -3.437
05:01 1017 30.03 846 24.98 8.2 46.7 96 7.6 45.7 -87.3 -3.437
05:02 1017 30.03 846 24.98 8.2 46.7 96 7.6 45.7 -87.3 -3.437
05:03 1017 30.03 846 24.98 8.2 46.7 96 7.6 45.7 -87.3 -3.437
05:04 1017 30.03 846 24.98 8.2 46.7 96 7.6 45.7 -87.3 -3.437
05:05 1017 30.03 846 24.98 8.1 46.7 96 7.6 45.7 -87.3 -3.437
05:06 1017 30.03 847 25.01 8.1 46.6 96 7.5 45.5 -87.3 -3.437
05:07 1017 30.03 847 25.01 8.1 46.6 96 7.6 45.6 -87.3 -3.437
05:08 1017 30.03 847 25.01 8.1 46.6 96 7.6 45.6 -87.3 -3.437
05:09 1017 30.03 847 25.01 8.1 46.5 96 7.5 45.6 -87.3 -3.437
05:10 1017 30.03 846 24.98 8.1 46.5 96 7.5 45.6 -87.3 -3.437
05:11 1017 30.03 846 24.98 8.1 46.5 96 7.5 45.6 -87.3 -3.437
05:12 1017 30.03 846 24.98 8.1 46.5 96 7.5 45.6 -87.3 -3.437
05:13 1017 30.03 846 24.98 8.1 46.5 96 7.5 45.5 -87.3 -3.437
05:14 1017 30.03 847 25.01 8.1 46.5 96 7.5 45.5 -87.3 -3.437
05:15 1017 30.03 847 25.01 8 46.5 97 7.5 45.5 -87.3 -3.437
05:16 1017 30.03 847 25.01 8 46.5 97 7.5 45.5 -87.3 -3.437
05:17 1017 30.03 847 25.01 8 46.5 97 7.5 45.6 -87.3 -3.437
05:18 1017 30.03 847 25.01 8 46.4 97 7.5 45.5 -87.3 -3.437
05:19 1017 30.03 847 25.01 8 46.4 97 7.5 45.5 -87.3 -3.437
05:20 1017 30.03 847 25.01 8 46.4 97 7.5 45.5 -87.3 -3.437
05:21 1017 30.03 847 25.01 8 46.4 97 7.5 45.5 -87.3 -3.437
05:22 1017 30.03 847 25.01 8 46.4 97 7.5 45.5 -87.3 -3.437
05:23 1017 30.03 847 25.01 8 46.4 97 7.5 45.5 -87.3 -3.437
05:24 1017 30.03 847 25.01 8 46.4 97 7.5 45.5 -87.3 -3.437
05:25 1017 30.03 847 25.01 8 46.3 97 7.5 45.4 -87.3 -3.437
05:26 1017 30.03 847 25.01 7.9 46.3 97 7.4 45.4 -87.3 -3.437
05:27 1017 30.03 847 25.01 8 46.3 97 7.4 45.4 -87.3 -3.437
05:28 1017 30.03 847 25.01 8 46.4 97 7.5 45.4 -87.3 -3.437
05:29 1017 30.03 847 25.01 8 46.3 97 7.5 45.4 -87.3 -3.437
05:30 1017 30.03 847 25.01 8 46.3 97 7.5 45.4 -87.3 -3.437
05:31 1017 30.03 847 25.01 8 46.5 97 7.5 45.5 -87.3 -3.437
05:32 1017 30.03 847 25.01 8 46.3 97 7.5 45.4 -87.3 -3.437
05:33 1017 30.03 847 25.01 7.9 46.3 97 7.5 45.4 -87.3 -3.437
05:34 1017 30.03 847 25.01 8 46.4 97 7.5 45.5 -87.3 -3.437
05:35 1017 30.03 847 25.01 8 46.4 97 7.5 45.5 -87.3 -3.437
05:36 1017 30.03 847 25.01 8 46.4 97 7.5 45.5 -87.3 -3.437
05:37 1017 30.03 847 25.01 8 46.4 97 7.5 45.5 -87.3 -3.437
05:38 1017 30.03 847 25.01 8 46.4 97 7.5 45.5 -87.3 -3.437
05:39 1017 30.03 847 25.01 8 46.5 97 7.5 45.5 -87.3 -3.437
05:40 1017 30.03 847 25.01 8.1 46.5 97 7.6 45.6 -87.3 -3.437
05:41 1017 30.03 847 25.01 8.1 46.5 97 7.6 45.6 -87.3 -3.437
05:42 1017 30.03 847 25.01 8.1 46.5 97 7.6 45.6 -87.3 -3.437
05:43 1017 30.03 847 25.01 8.1 46.5 97 7.6 45.6 -87.3 -3.437
05:44 1017 30.03 847 25.01 8.1 46.5 97 7.6 45.6 -87.3 -3.437
05:45 1017 30.03 847 25.01 8.1 46.5 97 7.6 45.6 -87.3 -3.437
05:46 1018 30.06 847 25.01 8.1 46.5 97 7.6 45.6 -87.3 -3.437
05:47 1018 30.06 847 25.01 8.1 46.5 97 7.6 45.6 -87.3 -3.437
05:48 1018 30.06 847 25.01 8.1 46.6 97 7.6 45.7 -87.3 -3.437
05:49 1018 30.06 847 25.01 8.1 46.6 97 7.6 45.7 -87.2 -3.433
05:50 1018 30.06 847 25.01 8.1 46.6 97 7.6 45.8 -87.2 -3.433
05:51 1018 30.06 847 25.01 8.2 46.7 97 7.7 45.8 -87.2 -3.433
05:52 1017 30.03 847 25.01 8.2 46.7 97 7.7 45.9 -87.2 -3.433
05:53 1017 30.03 847 25.01 8.2 46.8 97 7.7 45.9 -87.2 -3.433
05:54 1017 30.03 847 25.01 8.2 46.8 96 7.7 45.9 -87.2 -3.433
05:55 1017 30.03 847 25.01 8.3 46.9 96 7.7 45.9 -87.2 -3.433
05:56 1018 30.06 847 25.01 8.2 46.8 96 7.7 45.8 -87.1 -3.429
05:57 1018 30.06 847 25.01 8.3 46.9 96 7.7 45.9 -87.1 -3.429
05:58 1018 30.06 847 25.01 8.2 46.8 96 7.7 45.9 -87.1 -3.429
05:59 1018 30.06 847 25.01 8.2 46.8 96 7.7 45.8 -87.1 -3.429
06:00 1018 30.06 847 25.01 8.2 46.7 96 7.6 45.7 -87.2 -3.433
06:01 1018 30.06 847 25.01 8.2 46.7 96 7.6 45.7 -87.2 -3.433
06:02 1018 30.06 847 25.01 8.1 46.6 96 7.6 45.7 -87.2 -3.433
06:03 1018 30.06 847 25.01 8.2 46.7 97 7.7 45.8 -87.2 -3.433
06:04 1018 30.06 847 25.01 8.1 46.7 97 7.6 45.7 -87.2 -3.433
06:05 1018 30.06 847 25.01 8.1 46.6 97 7.6 45.7 -87.2 -3.433
06:06 1018 30.06 847 25.01 8.1 46.6 97 7.6 45.7 -87.2 -3.433
06:07 1018 30.06 847 25.01 8.2 46.7 97 7.6 45.8 -87.1 -3.429
06:08 1018 30.06 847 25.01 8.1 46.7 97 7.6 45.7 -87.1 -3.429
06:09 1018 30.06 847 25.01 8.2 46.7 97 7.7 45.8 -87.1 -3.429
06:10 1018 30.06 847 25.01 8.2 46.7 97 7.7 45.8 -87.1 -3.429
06:11 1018 30.06 847 25.01 8.2 46.7 97 7.7 45.8 -87.1 -3.429
06:12 1018 30.06 847 25.01 8.2 46.7 97 7.7 45.8 -87.1 -3.429
06:13 1018 30.06 847 25.01 8.2 46.7 97 7.7 45.8 -87.1 -3.429
06:14 1018 30.06 847 25.01 8.2 46.7 97 7.7 45.8 -87.2 -3.433
06:15 1018 30.06 847 25.01 8.2 46.7 97 7.7 45.8 -87.2 -3.433
06:16 1018 30.06 847 25.01 8.2 46.7 97 7.7 45.8 -87.2 -3.433
06:17 1018 30.06 847 25.01 8.2 46.8 97 7.7 45.9 -87.2 -3.433
06:18 1018 30.06 847 25.01 8.2 46.8 97 7.7 45.9 -87.2 -3.433
06:19 1018 30.06 847 25.01 8.2 46.8 97 7.7 45.9 -87.2 -3.433
06:20 1018 30.06 847 25.01 8.2 46.7 97 7.7 45.9 -87.2 -3.433
06:21 1018 30.06 847 25.01 8.2 46.7 97 7.7 45.9 -87.2 -3.433
06:22 1018 30.06 847 25.01 8.2 46.7 97 7.7 45.9 -87.2 -3.433
06:23 1018 30.06 847 25.01 8.2 46.8 97 7.8 46 -87.2 -3.433
06:24 1018 30.06 847 25.01 8.2 46.8 97 7.8 46.1 -87.2 -3.433
06:25 1018 30.06 847 25.01 8.2 46.8 97 7.8 46.1 -87.2 -3.433
06:26 1018 30.06 847 25.01 8.3 46.9 97 7.9 46.1 -87.2 -3.433
06:27 1018 30.06 847 25.01 8.3 46.9 97 7.9 46.2 -87.2 -3.433
06:28 1018 30.06 848 25.04 8.3 47 97 7.9 46.2 -87.2 -3.433
06:29 1018 30.06 848 25.04 8.3 47 97 7.9 46.2 -87.3 -3.437
06:30 1018 30.06 848 25.04 8.3 47 97 7.9 46.3 -87.3 -3.437
06:31 1018 30.06 848 25.04 8.4 47 97 8 46.3 -87.3 -3.437
06:32 1018 30.06 847 25.01 8.4 47.1 97 8 46.3 -87.2 -3.433
06:33 1018 30.06 847 25.01 8.5 47.2 97 8 46.4 -87.1 -3.429
06:34 1018 30.06 847 25.01 8.5 47.2 97 8 46.4 -87.1 -3.429
06:35 1018 30.06 847 25.01 8.6 47.4 92 7.3 45.1 -87.1 -3.429
06:36 1018 30.06 847 25.01 8.8 47.8 92 7.5 45.6 -87.1 -3.429
06:37 1017 30.03 847 25.01 8.9 47.9 92 7.6 45.7 -87 -3.425
06:38 1017 30.03 847 25.01 8.9 47.9 91 7.5 45.6 -87 -3.425
06:39 1017 30.03 847 25.01 8.9 48 94 7.9 46.2 -87 -3.425
06:40 1018 30.06 847 25.01 8.8 47.8 94 7.9 46.2 -87 -3.425
06:41 1018 30.06 847 25.01 8.8 47.8 95 8 46.4 -87 -3.425
06:42 1018 30.06 847 25.01 8.7 47.6 95 7.9 46.2 -87 -3.425
06:43 1018 30.06 847 25.01 8.6 47.5 95 7.8 46.1 -86.9 -3.421
06:44 1018 30.06 847 25.01 8.6 47.5 94 7.6 45.7 -86.9 -3.421
06:45 1018 30.06 847 25.01 8.6 47.5 93 7.6 45.6 -86.9 -3.421
06:46 1018 30.06 847 25.01 8.6 47.5 93 7.5 45.5 -86.9 -3.421
06:47 1018 30.06 847 25.01 8.5 47.3 92 7.3 45.2 -87 -3.425
06:48 1018 30.06 847 25.01 8.5 47.2 91 7.2 44.9 -87 -3.425
06:49 1018 30.06 847 25.01 8.4 47.1 91 7 44.7 -87 -3.425
06:50 1018 30.06 847 25.01 8.4 47.1 90 6.9 44.4 -87.1 -3.429
06:51 1018 30.06 847 25.01 8.3 47 89 6.7 44 -87.1 -3.429
06:52 1018 30.06 847 25.01 8.4 47 89 6.7 44 -87.1 -3.429
06:53 1018 30.06 847 25.01 8.3 47 89 6.6 43.9 -87.1 -3.429
06:54 1018 30.06 847 25.01 8.3 47 89 6.6 44 -87.1 -3.429
06:55 1018 30.06 847 25.01 8.3 46.9 89 6.6 43.8 -87.1 -3.429
06:56 1018 30.06 847 25.01 8.2 46.7 89 6.5 43.7 -87.1 -3.429
06:57 1018 30.06 847 25.01 8.1 46.5 89 6.4 43.5 -87.1 -3.429
06:58 1018 30.06 847 25.01 8 46.3 90 6.4 43.5 -87.1 -3.429
06:59 1018 30.06 847 25.01 7.9 46.2 90 6.3 43.4 -87.1 -3.429
07:00 1018 30.06 847 25.01 7.9 46.2 90 6.4 43.5 -87.1 -3.429
07:01 1018 30.06 847 25.01 7.8 46 91 6.4 43.5 -87.2 -3.433
07:02 1018 30.06 847 25.01 7.8 46 92 6.5 43.7 -87.2 -3.433
07:03 1018 30.06 847 25.01 7.7 45.9 92 6.5 43.8 -87.2 -3.433
07:04 1018 30.06 847 25.01 7.7 45.9 93 6.6 43.9 -87.2 -3.433
07:05 1018 30.06 847 25.01 7.7 45.9 92 6.6 43.9 -87.2 -3.433
07:06 1018 30.06 847 25.01 7.7 45.9 92 6.5 43.8 -87.2 -3.433
07:07 1018 30.06 847 25.01 7.7 45.8 93 6.6 43.8 -87.2 -3.433
07:08 1018 30.06 847 25.01 7.6 45.7 93 6.5 43.7 -87.3 -3.437
07:09 1018 30.06 847 25.01 7.6 45.7 93 6.5 43.7 -87.3 -3.437
07:10 1018 30.06 847 25.01 7.6 45.7 93 6.5 43.7 -87.3 -3.437
07:11 1018 30.06 847 25.01 7.6 45.6 92 6.4 43.5 -87.3 -3.437
07:12 1018 30.06 847 25.01 7.6 45.6 92 6.4 43.4 -87.3 -3.437
07:13 1018 30.06 848 25.04 7.5 45.6 92 6.3 43.4 -87.3 -3.437
07:14 1018 30.06 847 25.01 7.5 45.5 92 6.3 43.3 -87.3 -3.437
07:15 1018 30.06 848 25.04 7.5 45.5 92 6.3 43.3 -87.3 -3.437
07:16 1018 30.06 848 25.04 7.5 45.5 92 6.3 43.3 -87.3 -3.437
07:17 1018 30.06 848 25.04 7.4 45.4 92 6.3 43.3 -87.3 -3.437
07:18 1018 30.06 848 25.04 7.4 45.3 92 6.2 43.2 -87.3 -3.437
07:19 1018 30.06 848 25.04 7.4 45.2 93 6.2 43.2 -87.4 -3.441
07:20 1018 30.06 848 25.04 7.3 45.2 93 6.2 43.2 -87.4 -3.441
07:21 1018 30.06 848 25.04 7.3 45.2 93 6.2 43.2 -87.4 -3.441
07:22 1018 30.06 848 25.04 7.3 45.2 93 6.2 43.2 -87.4 -3.441
07:23 1018 30.06 848 25.04 7.3 45.2 93 6.2 43.2 -87.4 -3.441
07:24 1018 30.06 847 25.01 7.3 45.2 93 6.2 43.2 -87.4 -3.441
07:25 1018 30.06 848 25.04 7.4 45.2 93 6.3 43.3 -87.4 -3.441
07:26 1018 30.06 848 25.04 7.3 45.2 93 6.2 43.2 -87.5 -3.445
07:27 1018 30.06 848 25.04 7.4 45.2 93 6.3 43.3 -87.5 -3.445
07:28 1018 30.06 848 25.04 7.4 45.3 93 6.3 43.3 -87.5 -3.445
07:29 1018 30.06 848 25.04 7.4 45.3 92 6.2 43.2 -87.5 -3.445
07:30 1018 30.06 848 25.04 7.4 45.4 92 6.2 43.2 -87.5 -3.445
07:31 1018 30.06 848 25.04 7.4 45.4 92 6.2 43.2 -87.5 -3.445
07:32 1018 30.06 848 25.04 7.4 45.3 92 6.2 43.1 -87.5 -3.445
07:33 1018 30.06 848 25.04 7.4 45.2 92 6.1 43 -87.5 -3.445
07:34 1018 30.06 848 25.04 7.3 45.2 92 6.1 43 -87.5 -3.445
07:35 1018 30.06 848 25.04 7.3 45.2 92 6.2 43.1 -87.5 -3.445
07:36 1018 30.06 848 25.04 7.2 45 93 6.1 43 -87.5 -3.445
07:37 1018 30.06 848 25.04 7.2 45 93 6.1 43 -87.5 -3.445
07:38 1018 30.06 848 25.04 7.2 44.9 93 6.1 43 -87.5 -3.445
07:39 1018 30.06 848 25.04 7.2 44.9 93 6.1 43 -87.5 -3.445
07:40 1018 30.06 848 25.04 7.2 44.9 93 6.1 43.1 -87.5 -3.445
07:41 1018 30.06 848 25.04 7.2 44.9 93 6.1 43 -87.5 -3.445
07:42 1018 30.06 848 25.04 7.1 44.8 93 6.1 42.9 -87.5 -3.445
07:43 1018 30.06 848 25.04 7.1 44.8 93 6 42.8 -87.5 -3.445
07:44 1018 30.06 848 25.04 7.2 44.9 93 6.1 42.9 -87.5 -3.445
07:45 1018 30.06 848 25.04 7.2 44.9 93 6.1 42.9 -87.5 -3.445
07:46 1018 30.06 848 25.04 7.1 44.9 93 6.1 42.9 -87.5 -3.445
07:47 1018 30.06 848 25.04 7.1 44.9 93 6.1 43 -87.5 -3.445
07:48 1018 30.06 848 25.04 7.1 44.8 93 6.1 43 -87.5 -3.445
07:49 1018 30.06 848 25.04 7.1 44.8 93 6.1 43 -87.5 -3.445
07:50 1018 30.06 848 25.04 7.2 44.9 94 6.2 43.2 -87.5 -3.445
07:51 1018 30.06 848 25.04 7.1 44.8 94 6.2 43.1 -87.5 -3.445
07:52 1018 30.06 848 25.04 7.1 44.8 94 6.2 43.1 -87.5 -3.445
07:53 1018 30.06 848 25.04 7.2 44.9 94 6.2 43.2 -87.5 -3.445
07:54 1018 30.06 848 25.04 7.2 45 94 6.3 43.3 -87.5 -3.445
07:55 1018 30.06 848 25.04 7.2 45 94 6.3 43.3 -87.5 -3.445
07:56 1018 30.06 848 25.04 7.3 45.1 94 6.3 43.3 -87.5 -3.445
07:57 1018 30.06 848 25.04 7.3 45.2 94 6.3 43.4 -87.6 -3.449
07:58 1018 30.06 848 25.04 7.4 45.2 93 6.3 43.4 -87.6 -3.449
07:59 1018 30.06 848 25.04 7.4 45.3 93 6.4 43.5 -87.6 -3.449
08:00 1019 30.09 848 25.04 7.5 45.4 93 6.4 43.5 -87.6 -3.449
08:01 1019 30.09 848 25.04 7.5 45.5 93 6.4 43.5 -87.6 -3.449
08:02 1019 30.09 848 25.04 7.5 45.5 93 6.4 43.5 -87.6 -3.449
08:03 1019 30.09 848 25.04 7.5 45.6 93 6.5 43.6 -87.6 -3.449
08:04 1019 30.09 848 25.04 7.6 45.6 93 6.5 43.7 -87.6 -3.449
08:05 1019 30.09 848 25.04 7.6 45.6 93 6.5 43.7 -87.6 -3.449
08:06 1019 30.09 848 25.04 7.6 45.7 93 6.5 43.8 -87.6 -3.449
08:07 1019 30.09 848 25.04 7.6 45.8 93 6.6 43.9 -87.6 -3.449
08:08 1019 30.09 848 25.04 7.6 45.7 93 6.6 43.8 -87.6 -3.449
08:09 1019 30.09 848 25.04 7.6 45.8 93 6.6 43.9 -87.6 -3.449
08:10 1019 30.09 848 25.04 7.7 45.8 93 6.7 44.1 -87.6 -3.449
08:11 1019 30.09 848 25.04 7.7 45.8 93 6.6 43.9 -87.6 -3.449
08:12 1019 30.09 848 25.04 7.7 45.8 93 6.6 43.9 -87.6 -3.449
08:13 1019 30.09 848 25.04 7.7 45.9 93 6.7 44 -87.6 -3.449
08:14 1019 30.09 848 25.04 7.7 45.8 93 6.6 43.9 -87.6 -3.449
08:15 1019 30.09 848 25.04 7.7 45.8 93 6.6 43.9 -87.6 -3.449
08:16 1019 30.09 848 25.04 7.7 45.8 93 6.6 43.9 -87.6 -3.449
08:17 1019 30.09 848 25.04 7.7 45.8 93 6.6 43.9 -87.6 -3.449
08:18 1019 30.09 848 25.04 7.7 45.9 93 6.7 44 -87.6 -3.449
08:19 1019 30.09 848 25.04 7.7 45.8 93 6.6 44 -87.6 -3.449
08:20 1019 30.09 848 25.04 7.6 45.8 93 6.6 43.9 -87.6 -3.449
08:21 1019 30.09 848 25.04 7.6 45.7 93 6.6 43.9 -87.6 -3.449
08:22 1019 30.09 848 25.04 7.6 45.7 93 6.6 43.9 -87.6 -3.449
08:23 1019 30.09 848 25.04 7.6 45.6 93 6.6 43.9 -87.6 -3.449
08:24 1019 30.09 848 25.04 7.6 45.7 94 6.6 43.9 -87.6 -3.449
08:25 1019 30.09 848 25.04 7.6 45.6 94 6.6 43.9 -87.6 -3.449
08:26 1019 30.09 848 25.04 7.5 45.6 94 6.6 43.9 -87.6 -3.449
08:27 1019 30.09 848 25.04 7.5 45.6 94 6.6 43.9 -87.6 -3.449
08:28 1019 30.09 848 25.04 7.5 45.6 94 6.6 43.9 -87.6 -3.449
08:29 1019 30.09 848 25.04 7.5 45.6 94 6.6 44 -87.6 -3.449
08:30 1019 30.09 848 25.04 7.6 45.6 94 6.7 44 -87.6 -3.449
08:31 1019 30.09 848 25.04 7.6 45.7 94 6.7 44.1 -87.6 -3.449
08:32 1019 30.09 848 25.04 7.6 45.8 95 6.8 44.3 -87.6 -3.449
08:33 1019 30.09 848 25.04 7.7 45.9 95 6.9 44.4 -87.6 -3.449
08:34 1019 30.09 848 25.04 7.8 46 95 7 44.5 -87.6 -3.449
08:35 1019 30.09 848 25.04 7.8 46.1 95 7 44.6 -87.6 -3.449
08:36 1019 30.09 848 25.04 7.8 46.1 94 7 44.6 -87.6 -3.449
08:37 1019 30.09 848 25.04 7.9 46.1 94 7 44.6 -87.6 -3.449
08:38 1019 30.09 848 25.04 7.9 46.2 94 7 44.7 -87.6 -3.449
08:39 1019 30.09 848 25.04 7.9 46.3 94 7.1 44.7 -87.6 -3.449
08:40 1019 30.09 848 25.04 7.9 46.3 94 7.1 44.7 -87.6 -3.449
08:41 1019 30.09 848 25.04 8 46.4 94 7.2 44.9 -87.6 -3.449
08:42 1019 30.09 848 25.04 8 46.5 94 7.1 44.8 -87.6 -3.449
08:43 1019 30.09 848 25.04 8.1 46.5 94 7.2 44.9 -87.6 -3.449
08:44 1019 30.09 848 25.04 8.1 46.6 94 7.2 45 -87.6 -3.449
08:45 1019 30.09 848 25.04 8.1 46.7 94 7.3 45.1 -87.6 -3.449
08:46 1019 30.09 848 25.04 8.2 46.7 94 7.3 45.2 -87.6 -3.449
08:47 1019 30.09 848 25.04 8.2 46.8 94 7.4 45.3 -87.6 -3.449
08:48 1019 30.09 848 25.04 8.3 46.9 94 7.4 45.4 -87.6 -3.449
08:49 1019 30.09 848 25.04 8.4 47 93 7.3 45.2 -87.6 -3.449
08:50 1019 30.09 848 25.04 8.4 47.2 94 7.5 45.4 -87.6 -3.449
08:51 1019 30.09 848 25.04 8.5 47.2 93 7.4 45.3 -87.6 -3.449
08:52 1019 30.09 848 25.04 8.5 47.3 93 7.5 45.4 -87.6 -3.449
08:53 1019 30.09 848 25.04 8.5 47.4 92 7.3 45.1 -87.6 -3.449
08:54 1019 30.09 848 25.04 8.5 47.4 92 7.4 45.3 -87.6 -3.449
08:55 1019 30.09 848 25.04 8.6 47.5 92 7.4 45.4 -87.6 -3.449
08:56 1019 30.09 848 25.04 8.6 47.5 92 7.3 45.2 -87.6 -3.449
08:57 1019 30.09 848 25.04 8.6 47.5 92 7.3 45.2 -87.6 -3.449
08:58 1019 30.09 848 25.04 8.7 47.6 92 7.4 45.4 -87.6 -3.449
08:59 1019 30.09 848 25.04 8.7 47.7 92 7.5 45.5 -87.6 -3.449
09:00 1019 30.09 848 25.04 8.8 47.8 92 7.6 45.7 -87.6 -3.449
09:01 1019 30.09 848 25.04 8.8 47.8 93 7.7 45.8 -87.6 -3.449
09:02 1019 30.09 848 25.04 8.9 48 93 7.8 46 -87.6 -3.449
09:03 1019 30.09 848 25.04 8.9 48.1 92 7.8 46 -87.6 -3.449
09:04 1019 30.09 848 25.04 9 48.1 92 7.8 46 -87.6 -3.449
09:05 1019 30.09 848 25.04 9 48.2 92 7.8 46.1 -87.6 -3.449
09:06 1019 30.09 848 25.04 9.1 48.3 92 7.9 46.2 -87.6 -3.449
09:07 1019 30.09 848 25.04 9.1 48.4 92 7.8 46.1 -87.5 -3.445
09:08 1019 30.09 848 25.04 9.1 48.4 92 7.8 46.1 -87.5 -3.445
09:09 1019 30.09 848 25.04 9.2 48.5 92 7.8 46.1 -87.5 -3.445
09:10 1019 30.09 848 25.04 9.2 48.5 92 7.9 46.3 -87.5 -3.445
09:11 1019 30.09 848 25.04 9.3 48.7 92 8 46.4 -87.5 -3.445
09:12 1019 30.09 848 25.04 9.3 48.7 92 8 46.4 -87.5 -3.445
09:13 1019 30.09 848 25.04 9.3 48.8 92 8.1 46.5 -87.5 -3.445
09:14 1019 30.09 848 25.04 9.4 48.8 90 7.9 46.2 -87.5 -3.445
09:15 1019 30.09 848 25.04 9.4 48.9 90 7.9 46.2 -87.5 -3.445
09:16 1019 30.09 848 25.04 9.4 48.9 90 7.9 46.2 -87.5 -3.445
09:17 1019 30.09 848 25.04 9.5 49 90 7.9 46.3 -87.5 -3.445
09:18 1019 30.09 848 25.04 9.5 49.1 89 7.8 46 -87.5 -3.445
09:19 1019 30.09 848 25.04 9.5 49.1 89 7.8 46 -87.5 -3.445
09:20 1019 30.09 848 25.04 9.5 49.2 88 7.6 45.7 -87.5 -3.445
09:21 1019 30.09 848 25.04 9.6 49.2 88 7.7 45.8 -87.5 -3.445
09:22 1019 30.09 848 25.04 9.6 49.2 89 7.8 46 -87.5 -3.445
09:23 1019 30.09 848 25.04 9.6 49.3 89 8 46.3 -87.5 -3.445
09:24 1019 30.09 848 25.04 9.7 49.4 89 8 46.4 -87.5 -3.445
09:25 1019 30.09 848 25.04 9.7 49.4 90 8.1 46.6 -87.5 -3.445
09:26 1019 30.09 848 25.04 9.7 49.4 87 7.7 45.9 -87.5 -3.445
09:27 1019 30.09 848 25.04 9.7 49.5 88 7.9 46.2 -87.5 -3.445
09:28 1019 30.09 848 25.04 9.8 49.6 89 8.1 46.5 -87.4 -3.441
09:29 1019 30.09 848 25.04 9.9 49.7 87 7.7 45.9 -87.4 -3.441
09:30 1019 30.09 848 25.04 9.9 49.7 87 7.8 46.1 -87.4 -3.441
09:31 1019 30.09 848 25.04 9.9 49.8 85 7.5 45.4 -87.4 -3.441
09:32 1019 30.09 848 25.04 9.9 49.8 85 7.6 45.6 -87.4 -3.441
09:33 1019 30.09 848 25.04 10 49.9 85 7.6 45.7 -87.4 -3.441
09:34 1019 30.09 848 25.04 10 49.9 85 7.6 45.7 -87.4 -3.441
09:35 1019 30.09 848 25.04 10 50 84 7.5 45.4 -87.4 -3.441
09:36 1019 30.09 848 25.04 10.1 50.1 85 7.6 45.7 -87.4 -3.441
09:37 1019 30.09 848 25.04 10.1 50.3 85 7.7 45.9 -87.4 -3.441
09:38 1019 30.09 848 25.04 10.1 50.3 85 7.7 45.8 -87.4 -3.441
09:39 1019 30.09 848 25.04 10.2 50.3 86 7.9 46.2 -87.4 -3.441
09:40 1019 30.09 848 25.04 10.3 50.5 84 7.8 46 -87.4 -3.441
09:41 1019 30.09 848 25.04 10.3 50.5 85 7.8 46.1 -87.4 -3.441
09:42 1019 30.09 848 25.04 10.3 50.6 84 7.8 46.1 -87.3 -3.437
09:43 1019 30.09 848 25.04 10.3 50.6 84 7.8 46.1 -87.3 -3.437
09:44 1019 30.09 848 25.04 10.4 50.8 85 8 46.5 -87.3 -3.437
09:45 1019 30.09 848 25.04 10.5 50.9 83 7.8 46 -87.3 -3.437
09:46 1019 30.09 848 25.04 10.5 51 84 8 46.4 -87.3 -3.437
09:47 1019 30.09 848 25.04 10.5 51 79 7.1 44.8 -87.3 -3.437
09:48 1019 30.09 848 25.04 10.6 51 75 6.3 43.3 -87.3 -3.437
09:49 1019 30.09 848 25.04 10.6 51 80 7.2 45 -87.3 -3.437
09:50 1019 30.09 848 25.04 10.6 51.1 76 6.6 43.9 -87.3 -3.437
09:51 1019 30.09 848 25.04 10.8 51.5 82 7.9 46.2 -87.3 -3.437
09:52 1019 30.09 848 25.04 11.1 52 76 7 44.6 -87.3 -3.437
09:53 1019 30.09 848 25.04 11.3 52.3 74 6.8 44.2 -87.3 -3.437
09:54 1019 30.09 848 25.04 11.3 52.4 78 7.6 45.6 -87.3 -3.437
09:55 1019 30.09 848 25.04 11.3 52.3 78 7.6 45.7 -87.3 -3.437
09:56 1019 30.09 848 25.04 11.2 52.2 75 6.9 44.4 -87.3 -3.437
09:57 1019 30.09 848 25.04 11.1 52.1 73 6.4 43.6 -87.3 -3.437
09:58 1019 30.09 848 25.04 11.1 51.9 76 7 44.5 -87.3 -3.437
09:59 1019 30.09 848 25.04 11.1 52 80 7.7 45.9 -87.2 -3.433
10:00 1019 30.09 848 25.04 11.2 52.2 75 6.9 44.5 -87.2 -3.433
10:01 1019 30.09 848 25.04 11.4 52.5 70 6.1 43.1 -87.2 -3.433
10:02 1019 30.09 848 25.04 11.5 52.8 72 6.7 44.1 -87.2 -3.433
10:03 1019 30.09 848 25.04 11.6 52.9 67 5.8 42.5 -87.2 -3.433
10:04 1019 30.09 848 25.04 11.7 53 74 7.2 45 -87.2 -3.433
10:05 1019 30.09 848 25.04 11.6 52.9 71 6.6 43.8 -87.2 -3.433
10:06 1019 30.09 848 25.04 11.5 52.7 71 6.4 43.5 -87.2 -3.433
10:07 1019 30.09 849 25.07 11.3 52.4 71 6.2 43.2 -87.2 -3.433
10:08 1019 30.09 848 25.04 11.2 52.1 76 7.1 44.8 -87.2 -3.433
10:09 1019 30.09 849 25.07 11.1 51.9 73 6.4 43.5 -87.1 -3.429
10:10 1019 30.09 849 25.07 11 51.9 77 7.2 45 -87.1 -3.429
10:11 1019 30.09 849 25.07 11 51.7 73 6.4 43.5 -87.1 -3.429
10:12 1019 30.09 849 25.07 10.9 51.6 77 7 44.5 -87.1 -3.429
10:13 1019 30.09 849 25.07 10.9 51.6 75 6.7 44 -87 -3.425
10:14 1019 30.09 849 25.07 10.8 51.4 76 6.8 44.3 -87 -3.425
10:15 1019 30.09 849 25.07 10.8 51.4 71 5.7 42.3 -87 -3.425
10:16 1019 30.09 849 25.07 10.7 51.3 75 6.5 43.6 -87 -3.425
10:17 1019 30.09 849 25.07 10.7 51.3 72 6 42.7 -87 -3.425
10:18 1019 30.09 849 25.07 10.8 51.5 75 6.6 43.9 -86.9 -3.421
10:19 1019 30.09 849 25.07 11 51.9 78 7.4 45.3 -86.9 -3.421
10:20 1019 30.09 849 25.07 11.3 52.4 72 6.5 43.7 -87 -3.425
10:21 1019 30.09 849 25.07 11.3 52.4 72 6.6 43.8 -87 -3.425
10:22 1019 30.09 849 25.07 11.4 52.5 74 6.9 44.4 -87 -3.425
10:23 1019 30.09 849 25.07 11.4 52.5 69 6 42.9 -87 -3.425
10:24 1019 30.09 849 25.07 11.3 52.3 75 7 44.6 -87 -3.425
10:25 1019 30.09 849 25.07 11.2 52.2 74 6.8 44.2 -87 -3.425
10:26 1019 30.09 849 25.07 11.2 52.2 75 7 44.7 -86.9 -3.421
10:27 1019 30.09 849 25.07 11.3 52.3 71 6.3 43.4 -86.9 -3.421
10:28 1019 30.09 849 25.07 11.3 52.3 75 7.1 44.8 -86.9 -3.421
10:29 1019 30.09 849 25.07 11.3 52.3 75 7 44.5 -86.9 -3.421
10:30 1019 30.09 849 25.07 11.4 52.6 75 7.2 45 -86.9 -3.421
10:31 1019 30.09 849 25.07 11.5 52.7 77 7.7 45.9 -86.9 -3.421
10:32 1019 30.09 849 25.07 11.6 52.8 75 7.3 45.2 -86.9 -3.421
10:33 1019 30.09 849 25.07 11.7 53 69 6.3 43.3 -86.8 -3.417
10:34 1019 30.09 849 25.07 11.7 53.1 74 7.3 45.2 -86.8 -3.417
10:35 1019 30.09 849 25.07 11.8 53.2 74 7.3 45.2 -86.9 -3.421
10:36 1019 30.09 849 25.07 11.9 53.3 69 6.5 43.7 -86.9 -3.421
10:37 1019 30.09 849 25.07 11.9 53.3 71 6.8 44.2 -86.9 -3.421
10:38 1019 30.09 849 25.07 11.9 53.5 67 6.1 43 -86.9 -3.421
10:39 1019 30.09 849 25.07 11.9 53.5 75 7.8 46 -86.9 -3.421
10:40 1020 30.12 849 25.07 12 53.6 69 6.6 43.9 -86.9 -3.421
10:41 1020 30.12 849 25.07 12 53.7 67 6.1 42.9 -86.9 -3.421
10:42 1020 30.12 849 25.07 12 53.5 74 7.4 45.3 -86.9 -3.421
10:43 1020 30.12 849 25.07 12 53.7 73 7.4 45.4 -86.9 -3.421
10:44 1020 30.12 849 25.07 12.1 53.9 77 8.3 47 -86.9 -3.421
10:45 1020 30.12 849 25.07 12.3 54.1 71 7.2 44.9 -86.9 -3.421
10:46 1020 30.12 849 25.07 12.3 54.1 72 7.4 45.3 -86.8 -3.417
10:47 1020 30.12 849 25.07 12.2 54 71 7.1 44.8 -86.8 -3.417
10:48 1020 30.12 849 25.07 12.2 54 71 7.2 44.9 -86.8 -3.417
10:49 1020 30.12 849 25.07 12.3 54.2 66 6.2 43.2 -86.8 -3.417
10:50 1020 30.12 849 25.07 12.3 54.1 70 6.9 44.5 -86.8 -3.417
10:51 1020 30.12 849 25.07 12.3 54.1 69 6.8 44.3 -86.8 -3.417
10:52 1020 30.12 849 25.07 12.3 54.1 65 6 42.9 -86.8 -3.417
10:53 1020 30.12 849 25.07 12.3 54.1 69 6.9 44.4 -86.8 -3.417
10:54 1020 30.12 849 25.07 12.1 53.8 68 6.4 43.5 -86.8 -3.417
10:55 1020 30.12 849 25.07 12 53.6 70 6.7 44 -86.8 -3.417
10:56 1020 30.12 849 25.07 11.9 53.4 74 7.4 45.3 -86.7 -3.413
10:57 1020 30.12 849 25.07 11.9 53.4 70 6.6 43.8 -86.7 -3.413
10:58 1020 30.12 849 25.07 11.8 53.2 72 6.9 44.5 -86.7 -3.413
10:59 1020 30.12 849 25.07 11.9 53.5 71 6.8 44.3 -86.7 -3.413
11:00 1020 30.12 849 25.07 12.1 53.8 75 7.9 46.3 -86.6 -3.409
11:01 1020 30.12 849 25.07 12.3 54.1 66 6.1 43.1 -86.6 -3.409
11:02 1020 30.12 849 25.07 12.3 54.2 68 6.6 43.8 -86.6 -3.409
11:03 1020 30.12 849 25.07 12.5 54.5 71 7.3 45.2 -86.6 -3.409
11:04 1020 30.12 849 25.07 12.6 54.7 73 7.8 46.1 -86.7 -3.413
11:05 1020 30.12 849 25.07 12.6 54.6 69 7.2 44.9 -86.7 -3.413
11:06 1020 30.12 849 25.07 12.6 54.6 72 7.6 45.7 -86.7 -3.413
11:07 1020 30.12 849 25.07 12.7 54.8 64 6.2 43.1 -86.7 -3.413
11:08 1020 30.12 849 25.07 12.8 55 69 7.3 45.2 -86.7 -3.413
11:09 1020 30.12 849 25.07 12.8 55 66 6.6 43.8 -86.7 -3.413
11:10 1020 30.12 849 25.07 12.7 54.9 67 6.9 44.4 -86.7 -3.413
11:11 1020 30.12 849 25.07 12.7 54.8 70 7.4 45.3 -86.7 -3.413
11:12 1020 30.12 849 25.07 12.6 54.8 69 7.3 45.1 -86.7 -3.413
11:13 1020 30.12 849 25.07 12.8 55 74 8.3 46.9 -86.7 -3.413
11:14 1020 30.12 849 25.07 13.1 55.6 70 7.8 46.1 -86.8 -3.417
11:15 1020 30.12 849 25.07 13.3 55.9 59 5.5 41.9 -86.8 -3.417
11:16 1020 30.12 849 25.07 13.3 55.9 67 7.4 45.3 -86.7 -3.413
11:17 1020 30.12 849 25.07 13.3 56 61 6 42.8 -86.7 -3.413
11:18 1020 30.12 849 25.07 13.2 55.7 64 6.6 43.8 -86.7 -3.413
11:19 1020 30.12 849 25.07 12.9 55.2 64 6.2 43.2 -86.6 -3.409
11:20 1020 30.12 849 25.07 12.8 55.1 59 5.1 41.2 -86.6 -3.409
11:21 1020 30.12 849 25.07 12.8 55 65 6.3 43.4 -86.5 -3.406
11:22 1020 30.12 849 25.07 12.8 55.1 62 5.7 42.3 -86.5 -3.406
11:23 1020 30.12 849 25.07 12.8 55.1 66 6.6 43.8 -86.5 -3.406
11:24 1020 30.12 849 25.07 13 55.3 62 5.9 42.6 -86.5 -3.406
11:25 1020 30.12 849 25.07 13.1 55.5 62 6.1 43 -86.4 -3.402
11:26 1020 30.12 849 25.07 13.3 55.9 64 6.6 43.9 -86.4 -3.402
11:27 1020 30.12 849 25.07 13.4 56.1 62 6.2 43.2 -86.4 -3.402
11:28 1020 30.12 849 25.07 13.4 56 61 6.1 42.9 -86.4 -3.402
11:29 1020 30.12 849 25.07 13.3 55.9 57 5.1 41.2 -86.4 -3.402
11:30 1020 30.12 849 25.07 13.2 55.8 58 5.3 41.5 -86.4 -3.402
11:31 1020 30.12 849 25.07 13.1 55.5 60 5.6 42.2 -86.4 -3.402
11:32 1020 30.12 849 25.07 13.1 55.6 65 6.6 44 -86.4 -3.402
11:33 1020 30.12 849 25.07 13.3 55.9 66 7.2 44.9 -86.4 -3.402
11:34 1020 30.12 849 25.07 13.5 56.3 57 5.1 41.3 -86.3 -3.398
11:35 1020 30.12 849 25.07 13.5 56.4 62 6.5 43.8 -86.3 -3.398
11:36 1020 30.12 849 25.07 13.5 56.3 57 5.1 41.2 -86.3 -3.398
11:37 1020 30.12 849 25.07 13.4 56.1 60 5.9 42.6 -86.3 -3.398
11:38 1020 30.12 849 25.07 13.3 56 64 6.6 43.9 -86.3 -3.398
11:39 1020 30.12 849 25.07 13.4 56.1 62 6.3 43.4 -86.2 -3.394
11:40 1020 30.12 849 25.07 13.4 56.1 61 6.2 43.1 -86.2 -3.394
11:41 1020 30.12 849 25.07 13.5 56.2 57 5.3 41.5 -86.2 -3.394
11:42 1020 30.12 849 25.07 13.5 56.2 64 6.8 44.2 -86.2 -3.394
11:43 1020 30.12 849 25.07 13.6 56.4 59 5.7 42.3 -86.1 -3.39
11:44 1020 30.12 849 25.07 13.6 56.5 56 5.1 41.2 -86.1 -3.39
11:45 1020 30.12 849 25.07 13.4 56.2 58 5.3 41.6 -86.1 -3.39
11:46 1020 30.12 849 25.07 13.3 55.9 61 6 42.8 -86.1 -3.39
11:47 1020 30.12 849 25.07 13.3 55.9 63 6.5 43.6 -86.1 -3.39
11:48 1020 30.12 849 25.07 13.5 56.3 60 6 42.8 -86.1 -3.39
11:49 1020 30.12 849 25.07 13.6 56.5 66 7.4 45.2 -86.1 -3.39
11:50 1020 30.12 849 25.07 13.7 56.6 57 5.4 41.7 -86.1 -3.39
11:51 1020 30.12 849 25.07 13.6 56.5 57 5.3 41.5 -86 -3.386
11:52 1020 30.12 849 25.07 13.4 56.2 56 5 41 -86 -3.386
11:53 1020 30.12 849 25.07 13.4 56 60 5.8 42.5 -86 -3.386
11:54 1020 30.12 849 25.07 13.2 55.8 60 5.8 42.5 -85.9 -3.382
11:55 1020 30.12 849 25.07 13.2 55.8 61 5.8 42.5 -85.9 -3.382
11:56 1020 30.12 849 25.07 13.4 56.1 61 6.1 42.9 -85.9 -3.382
11:57 1020 30.12 849 25.07 13.4 56.2 58 5.3 41.6 -85.9 -3.382
11:58 1020 30.12 849 25.07 13.4 56.1 61 6.1 42.9 -85.8 -3.378
11:59 1020 30.12 849 25.07 13.5 56.3 56 5.1 41.1 -85.8 -3.378
12:00 1020 30.12 849 25.07 13.4 56 61 5.9 42.7 -85.8 -3.378
12:01 1020 30.12 849 25.07 13.3 55.9 58 5.2 41.3 -85.7 -3.374
12:02 1020 30.12 849 25.07 13.3 55.9 57 5.1 41.1 -85.7 -3.374
12:03 1020 30.12 849 25.07 13.2 55.8 60 5.7 42.2 -85.7 -3.374
12:04 1020 30.12 849 25.07 13.2 55.8 64 6.6 43.9 -85.7 -3.374
12:05 1020 30.12 849 25.07 13.3 56 57 5.2 41.3 -85.7 -3.374
12:06 1020 30.12 849 25.07 13.4 56.1 56 4.8 40.6 -85.7 -3.374
12:07 1020 30.12 849 25.07 13.3 55.9 63 6.4 43.5 -85.6 -3.37
12:08 1020 30.12 849 25.07 13.3 56 57 5 41 -85.6 -3.37
12:09 1020 30.12 849 25.07 13.4 56.1 58 5.3 41.6 -85.6 -3.37
12:10 1020 30.12 849 25.07 13.3 55.9 64 6.7 44.1 -85.6 -3.37
12:11 1020 30.12 849 25.07 13.2 55.8 62 6.1 43 -85.5 -3.366
12:12 1020 30.12 849 25.07 13.3 55.9 66 7.1 44.8 -85.5 -3.366
12:13 1020 30.12 849 25.07 13.4 56.1 63 6.7 44 -85.5 -3.366
12:14 1020 30.12 849 25.07 13.5 56.3 59 5.8 42.4 -85.5 -3.366
12:15 1020 30.12 849 25.07 13.5 56.2 59 5.8 42.4 -85.5 -3.366
12:16 1020 30.12 849 25.07 13.4 56.2 59 5.6 42 -85.5 -3.366
12:17 1020 30.12 849 25.07 13.5 56.3 61 6.1 42.9 -85.5 -3.366
12:18 1020 30.12 849 25.07 13.6 56.5 63 6.7 44 -85.5 -3.366
12:19 1020 30.12 849 25.07 13.8 56.8 64 7.2 45 -85.5 -3.366
12:20 1020 30.12 849 25.07 13.9 57.1 61 6.6 43.9 -85.5 -3.366
12:21 1019 30.09 849 25.07 13.8 56.9 61 6.5 43.8 -85.5 -3.366
12:22 1020 30.12 849 25.07 13.9 56.9 63 7 44.6 -85.5 -3.366
12:23 1019 30.09 849 25.07 13.9 57 63 7.1 44.7 -85.5 -3.366
12:24 1019 30.09 849 25.07 13.8 56.9 58 5.7 42.3 -85.5 -3.366
12:25 1019 30.09 849 25.07 13.9 57 61 6.7 44 -85.4 -3.362
12:26 1019 30.09 849 25.07 14 57.1 57 5.7 42.2 -85.4 -3.362
12:27 1019 30.09 849 25.07 13.8 56.9 62 6.8 44.3 -85.4 -3.362
12:28 1019 30.09 848 25.04 13.8 56.8 58 5.8 42.4 -85.4 -3.362
12:29 1019 30.09 848 25.04 13.8 56.8 58 5.8 42.4 -85.4 -3.362
12:30 1019 30.09 848 25.04 13.8 56.8 58 5.8 42.4 -85.4 -3.362
12:31 1019 30.09 848 25.04 13.8 56.8 64 7.2 45 -85.3 -3.358
12:32 1019 30.09 848 25.04 13.9 57.1 59 6.2 43.2 -85.3 -3.358
12:33 1019 30.09 848 25.04 14 57.1 63 7.2 44.9 -85.3 -3.358
12:34 1019 30.09 848 25.04 14 57.1 62 6.9 44.5 -85.3 -3.358
12:35 1019 30.09 848 25.04 14 57.2 62 6.9 44.4 -85.3 -3.358
12:36 1019 30.09 848 25.04 14 57.2 58 5.9 42.7 -85.3 -3.358
12:37 1019 30.09 848 25.04 14 57.2 61 6.6 43.9 -85.3 -3.358
12:38 1019 30.09 848 25.04 14.1 57.4 58 6 42.8 -85.3 -3.358
12:39 1019 30.09 848 25.04 14 57.2 61 6.7 44.1 -85.3 -3.358
12:40 1019 30.09 849 25.07 13.9 57 57 5.6 42.1 -85.3 -3.358
12:41 1019 30.09 849 25.07 13.9 57.1 57 5.6 42.1 -85.3 -3.358
12:42 1019 30.09 849 25.07 14 57.1 61 6.6 43.9 -85.3 -3.358
12:43 1019 30.09 849 25.07 14 57.1 59 6.2 43.2 -85.3 -3.358
12:44 1019 30.09 849 25.07 13.9 57.1 60 6.4 43.4 -85.3 -3.358
12:45 1019 30.09 849 25.07 13.9 57 61 6.4 43.6 -85.3 -3.358
12:46 1019 30.09 849 25.07 13.9 57 60 6.3 43.4 -85.3 -3.358
12:47 1019 30.09 849 25.07 14 57.2 60 6.4 43.6 -85.3 -3.358
12:48 1019 30.09 849 25.07 14.1 57.3 59 6.1 43.1 -85.3 -3.358
12:49 1019 30.09 849 25.07 14.1 57.4 58 6 42.8 -85.3 -3.358
12:50 1019 30.09 849 25.07 14.2 57.5 57 5.7 42.3 -85.3 -3.358
12:51 1019 30.09 849 25.07 14.1 57.3 56 5.5 41.8 -85.2 -3.354
12:52 1019 30.09 849 25.07 13.9 57.1 60 6.4 43.5 -85.3 -3.358
12:53 1019 30.09 848 25.04 14 57.2 52 4.5 40.1 -85.3 -3.358
12:54 1019 30.09 848 25.04 14.1 57.3 56 5.6 42 -85.2 -3.354
12:55 1019 30.09 848 25.04 14.2 57.5 54 5.1 41.1 -85.2 -3.354
12:56 1019 30.09 848 25.04 14.2 57.5 55 5.2 41.4 -85.2 -3.354
12:57 1019 30.09 848 25.04 14.1 57.4 55 5.3 41.5 -85.3 -3.358
12:58 1019 30.09 848 25.04 14.2 57.6 53 4.8 40.7 -85.2 -3.354
12:59 1019 30.09 848 25.04 14.3 57.7 55 5.4 41.7 -85.2 -3.354
13:00 1019 30.09 848 25.04 14.3 57.7 53 4.9 40.9 -85.3 -3.358
13:01 1019 30.09 848 25.04 14.1 57.3 53 4.7 40.5 -85.3 -3.358
13:02 1019 30.09 849 25.07 13.8 56.9 55 5 41 -85.3 -3.358
13:03 1019 30.09 849 25.07 13.8 56.8 54 4.7 40.4 -85.3 -3.358
13:04 1019 30.09 848 25.04 13.8 56.8 55 4.8 40.7 -85.3 -3.358
13:05 1019 30.09 848 25.04 13.7 56.6 56 5.2 41.4 -85.3 -3.358
13:06 1019 30.09 848 25.04 13.8 56.8 55 4.9 40.8 -85.2 -3.354
13:07 1019 30.09 848 25.04 14.1 57.3 53 4.7 40.5 -85.2 -3.354
13:08 1019 30.09 848 25.04 14 57.3 53 4.7 40.4 -85.2 -3.354
13:09 1019 30.09 848 25.04 14 57.1 51 4.1 39.4 -85.3 -3.358
13:10 1019 30.09 848 25.04 13.8 56.8 51 4 39.2 -85.3 -3.358
13:11 1019 30.09 848 25.04 13.7 56.6 52 4 39.2 -85.3 -3.358
13:12 1019 30.09 848 25.04 13.6 56.4 57 5.1 41.3 -85.3 -3.358
13:13 1019 30.09 848 25.04 13.6 56.4 57 5.3 41.5 -85.2 -3.354
13:14 1019 30.09 848 25.04 13.7 56.7 59 6 42.9 -85.2 -3.354
13:15 1019 30.09 848 25.04 14.1 57.3 58 6.1 43 -85.2 -3.354
13:16 1019 30.09 848 25.04 14.4 57.9 50 4.2 39.6 -85.2 -3.354
13:17 1019 30.09 848 25.04 14.4 57.8 54 5.1 41.2 -85.3 -3.358
13:18 1019 30.09 848 25.04 14.4 57.9 52 4.7 40.5 -85.3 -3.358
13:19 1019 30.09 848 25.04 14.4 58 54 5.3 41.5 -85.3 -3.358
13:20 1019 30.09 848 25.04 14.4 57.9 49 4 39.1 -85.3 -3.358
13:21 1019 30.09 848 25.04 14.2 57.5 55 5.3 41.5 -85.3 -3.358
13:22 1019 30.09 848 25.04 14 57.3 53 4.8 40.6 -85.3 -3.358
13:23 1019 30.09 848 25.04 14.1 57.4 54 5.2 41.3 -85.3 -3.358
13:24 1019 30.09 848 25.04 14.5 58 53 5 41.1 -85.3 -3.358
13:25 1019 30.09 848 25.04 14.7 58.5 49 4.2 39.5 -85.3 -3.358
13:26 1019 30.09 848 25.04 14.8 58.6 55 6 42.8 -85.3 -3.358
13:27 1019 30.09 848 25.04 15 59 54 6 42.7 -85.3 -3.358
13:28 1019 30.09 848 25.04 15.2 59.3 55 6.3 43.4 -85.3 -3.358
13:29 1019 30.09 848 25.04 15.3 59.6 52 5.6 42.1 -85.3 -3.358
13:30 1019 30.09 848 25.04 15.3 59.6 52 5.6 42.1 -85.4 -3.362
13:31 1019 30.09 848 25.04 15.2 59.3 57 6.7 44 -85.4 -3.362
13:32 1019 30.09 848 25.04 15 59 54 5.9 42.6 -85.3 -3.358
13:33 1019 30.09 848 25.04 14.8 58.7 55 6 42.8 -85.3 -3.358
13:34 1019 30.09 848 25.04 14.8 58.7 49 4.2 39.5 -85.3 -3.358
13:35 1019 30.09 848 25.04 14.8 58.6 54 5.6 42 -85.3 -3.358
13:36 1019 30.09 848 25.04 14.9 58.8 54 5.8 42.4 -85.2 -3.354
13:37 1019 30.09 848 25.04 15 59 51 5.1 41.2 -85.1 -3.35
13:38 1019 30.09 848 25.04 15.1 59.1 49 4.6 40.4 -85.1 -3.35
13:39 1019 30.09 848 25.04 14.9 58.8 50 4.7 40.4 -85.1 -3.35
13:40 1019 30.09 848 25.04 14.5 58.1 53 5 41 -85.1 -3.35
13:41 1019 30.09 848 25.04 14.3 57.8 54 5.3 41.5 -85.1 -3.35
13:42 1019 30.09 848 25.04 14.1 57.5 55 5.4 41.8 -85.1 -3.35
13:43 1019 30.09 848 25.04 14.2 57.6 56 5.7 42.3 -85.1 -3.35
13:44 1019 30.09 848 25.04 14.6 58.2 54 5.4 41.7 -85.1 -3.35
13:45 1019 30.09 848 25.04 14.8 58.7 48 4.1 39.4 -85.1 -3.35
13:46 1019 30.09 848 25.04 15.1 59.1 53 5.7 42.3 -85.1 -3.35
13:47 1019 30.09 848 25.04 15.3 59.5 49 4.6 40.3 -84.8 -3.339
13:48 1019 30.09 848 25.04 15.5 59.9 49 4.8 40.7 -84.2 -3.315
13:49 1019 30.09 848 25.04 15.6 60 49 4.9 40.9 -83.9 -3.303
13:50 1019 30.09 848 25.04 15.4 59.8 54 6.2 43.1 -83.6 -3.291
13:51 1019 30.09 848 25.04 15.4 59.6 53 5.9 42.6 -83.4 -3.283
13:52 1019 30.09 848 25.04 15.4 59.7 49 4.9 40.9 -83.3 -3.28
13:53 1019 30.09 848 25.04 15.5 59.9 51 5.6 42 -83.2 -3.276
13:54 1019 30.09 848 25.04 15.7 60.2 48 4.9 40.7 -83.2 -3.276
13:55 1019 30.09 848 25.04 15.7 60.2 48 4.9 40.9 -83.3 -3.28
13:56 1019 30.09 848 25.04 15.5 59.9 47 4.3 39.8 -83.2 -3.276
13:57 1019 30.09 848 25.04 15.2 59.4 46 3.8 38.9 -83.2 -3.276
13:58 1019 30.09 848 25.04 14.9 58.7 47 3.8 38.8 -83.1 -3.272
13:59 1019 30.09 848 25.04 14.7 58.5 53 5.4 41.8 -83.1 -3.272
14:00 1019 30.09 848 25.04 14.9 58.7 57 6.5 43.7 -83 -3.268
14:01 1019 30.09 848 25.04 15.1 59.3 50 4.8 40.7 -82.9 -3.264
14:02 1019 30.09 848 25.04 15.2 59.3 48 4.5 40 -82.9 -3.264
14:03 1019 30.09 848 25.04 15.2 59.3 49 4.6 40.2 -82.8 -3.26
14:04 1019 30.09 848 25.04 15.4 59.8 48 4.4 40 -82.8 -3.26
14:05 1019 30.09 848 25.04 15.7 60.3 51 5.6 42.1 -82.8 -3.26
14:06 1019 30.09 848 25.04 15.8 60.5 46 4.3 39.7 -82.8 -3.26
14:07 1019 30.09 848 25.04 15.7 60.3 50 5.5 41.9 -82.8 -3.26
14:08 1019 30.09 848 25.04 15.5 59.9 50 5.3 41.5 -82.8 -3.26
14:09 1019 30.09 848 25.04 15.3 59.5 48 4.4 40 -82.8 -3.26
14:10 1019 30.09 848 25.04 15 59.1 52 5.3 41.6 -82.9 -3.264
14:11 1019 30.09 848 25.04 14.9 58.8 52 5.1 41.3 -83 -3.268
14:12 1019 30.09 848 25.04 14.8 58.6 56 6.2 43.1 -83 -3.268
14:13 1019 30.09 848 25.04 14.7 58.4 54 5.4 41.7 -83 -3.268
14:14 1019 30.09 848 25.04 14.6 58.2 50 4.4 39.9 -83.1 -3.272
14:15 1019 30.09 848 25.04 14.5 58 50 4.3 39.8 -83.1 -3.272
14:16 1019 30.09 848 25.04 14.4 57.9 55 5.6 42.1 -83.2 -3.276
14:17 1019 30.09 848 25.04 14.4 57.9 56 5.7 42.2 -83.2 -3.276
14:18 1019 30.09 848 25.04 14.4 57.9 49 3.9 39 -83 -3.268
14:19 1019 30.09 848 25.04 14.3 57.8 49 3.8 38.9 -82.8 -3.26
14:20 1019 30.09 848 25.04 14.3 57.8 53 5 40.9 -82.7 -3.256
14:21 1019 30.09 848 25.04 14.4 57.9 55 5.5 41.9 -82.6 -3.252
14:22 1019 30.09 848 25.04 14.4 57.9 53 5.1 41.2 -82.7 -3.256
14:23 1019 30.09 848 25.04 14.4 57.8 55 5.5 41.9 -82.8 -3.26
14:24 1019 30.09 848 25.04 14.3 57.7 55 5.4 41.7 -82.9 -3.264
14:25 1019 30.09 848 25.04 14.2 57.5 53 4.8 40.7 -83 -3.268
14:26 1019 30.09 848 25.04 14 57.3 54 5 40.9 -82.9 -3.264
14:27 1019 30.09 848 25.04 14 57.1 55 5 41 -82.6 -3.252
14:28 1019 30.09 848 25.04 13.9 57 50 3.8 38.8 -82.4 -3.244
14:29 1019 30.09 848 25.04 13.8 56.9 55 5 40.9 -82.3 -3.24
14:30 1019 30.09 848 25.04 13.8 56.9 59 5.9 42.6 -82.3 -3.24
14:31 1019 30.09 848 25.04 13.9 57.1 56 5.4 41.8 -82.3 -3.24
14:32 1019 30.09 848 25.04 14 57.1 55 5.2 41.4 -82.2 -3.236
14:33 1019 30.09 848 25.04 13.9 57.1 56 5.5 41.9 -82.3 -3.24
14:34 1019 30.09 848 25.04 13.9 56.9 55 5 40.9 -82.3 -3.24
14:35 1019 30.09 848 25.04 13.8 56.9 57 5.6 42 -82.4 -3.244
14:36 1019 30.09 848 25.04 13.8 56.8 56 5.2 41.3 -82.4 -3.244
14:37 1019 30.09 848 25.04 13.8 56.8 56 5.1 41.2 -82.4 -3.244
14:38 1019 30.09 848 25.04 13.8 56.8 57 5.4 41.7 -82.4 -3.244
14:39 1019 30.09 848 25.04 13.8 56.8 60 6.2 43.2 -82.4 -3.244
14:40 1019 30.09 848 25.04 13.9 56.9 54 4.8 40.7 -82.4 -3.244
14:41 1019 30.09 848 25.04 13.9 56.9 53 4.5 40.1 -82.5 -3.248
14:42 1019 30.09 848 25.04 14 57.1 58 5.9 42.7 -82.6 -3.252
14:43 1019 30.09 848 25.04 14 57.2 52 4.4 39.9 -82.7 -3.256
14:44 1019 30.09 848 25.04 14 57.2 50 3.7 38.7 -82.8 -3.26
14:45 1019 30.09 848 25.04 14 57.2 53 4.5 40.2 -82.9 -3.264
14:46 1019 30.09 848 25.04 14 57.1 57 5.6 42.1 -83 -3.268
14:47 1019 30.09 848 25.04 13.9 57.1 54 5 40.9 -82.9 -3.264
14:48 1019 30.09 848 25.04 13.9 57 54 4.8 40.6 -82.9 -3.264
14:49 1019 30.09 848 25.04 13.9 57 57 5.4 41.8 -82.8 -3.26
14:50 1019 30.09 848 25.04 13.8 56.9 57 5.5 41.9 -82.8 -3.26
14:51 1019 30.09 848 25.04 13.8 56.8 49 3.3 37.9 -83 -3.268
14:52 1019 30.09 848 25.04 13.9 57 60 6.3 43.3 -83.3 -3.28
14:53 1019 30.09 848 25.04 14.2 57.5 52 4.5 40.2 -83.4 -3.283
14:54 1019 30.09 848 25.04 14.4 57.9 54 5.2 41.4 -83.5 -3.287
14:55 1019 30.09 848 25.04 14.6 58.3 53 5.4 41.7 -83.4 -3.283
14:56 1019 30.09 848 25.04 14.8 58.6 52 5.2 41.4 -83.2 -3.276
14:57 1019 30.09 848 25.04 14.8 58.6 52 5.1 41.1 -83 -3.268
14:58 1019 30.09 848 25.04 14.9 58.8 51 4.9 40.8 -83 -3.268
14:59 1019 30.09 848 25.04 15.1 59.1 50 4.9 40.9 -83.2 -3.276
15:00 1019 30.09 848 25.04 15.4 59.6 45 3.7 38.6 -83.5 -3.287
15:01 1019 30.09 848 25.04 15.5 59.9 44 3.5 38.3 -83.7 -3.295
15:02 1019 30.09 848 25.04 15.4 59.7 52 5.6 42 -83.8 -3.299
15:03 1019 30.09 848 25.04 15.3 59.6 44 3.2 37.7 -84 -3.307
15:04 1019 30.09 848 25.04 15.3 59.5 51 5.3 41.5 -84 -3.307
15:05 1019 30.09 848 25.04 15.3 59.5 46 3.8 38.8 -84.1 -3.311
15:06 1019 30.09 848 25.04 15.2 59.4 48 4.3 39.7 -84.2 -3.315
15:07 1019 30.09 848 25.04 15.1 59.2 50 4.9 40.7 -84.2 -3.315
15:08 1019 30.09 848 25.04 15.1 59.1 48 4.3 39.8 -84.3 -3.319
15:09 1019 30.09 848 25.04 15.1 59.2 47 4 39.3 -84.3 -3.319
15:10 1019 30.09 848 25.04 15.1 59.2 45 3.5 38.3 -84.3 -3.319
15:11 1019 30.09 848 25.04 15.2 59.3 48 4.3 39.7 -84.3 -3.319
15:12 1019 30.09 848 25.04 15.3 59.6 51 5.3 41.5 -84.4 -3.323
15:13 1019 30.09 848 25.04 15.5 60 47 4.3 39.7 -84.4 -3.323
15:14 1019 30.09 848 25.04 15.7 60.3 43 3.1 37.7 -84.4 -3.323
15:15 1019 30.09 848 25.04 15.8 60.4 42 3 37.4 -84.4 -3.323
15:16 1019 30.09 848 25.04 15.7 60.3 45 4.1 39.3 -84.4 -3.323
15:17 1019 30.09 848 25.04 15.9 60.6 42 3.2 37.7 -84.4 -3.323
15:18 1019 30.09 848 25.04 16 60.8 44 3.9 39 -84.4 -3.323
15:19 1019 30.09 848 25.04 16 60.8 44 3.8 38.9 -84.4 -3.323
15:20 1019 30.09 848 25.04 16.1 61 45 4.2 39.6 -84.4 -3.323
15:21 1019 30.09 848 25.04 16.1 61 45 4.1 39.5 -84.4 -3.323
15:22 1019 30.09 848 25.04 16.3 61.3 44 4.1 39.3 -84.3 -3.319
15:23 1019 30.09 848 25.04 16.3 61.4 45 4.6 40.3 -84.3 -3.319
15:24 1019 30.09 848 25.04 16.4 61.4 45 4.4 39.9 -84.3 -3.319
15:25 1019 30.09 848 25.04 16.4 61.5 51 6.2 43.1 -84.3 -3.319
15:26 1019 30.09 848 25.04 16.4 61.5 39 2.5 36.6 -84.3 -3.319
15:27 1019 30.09 848 25.04 16.2 61.2 44 4.2 39.6 -84.3 -3.319
15:28 1019 30.09 848 25.04 16.1 61 43 3.7 38.7 -84.3 -3.319
15:29 1019 30.09 848 25.04 16 60.8 46 4.4 39.9 -84.3 -3.319
15:30 1019 30.09 848 25.04 15.9 60.6 45 4.2 39.5 -84.2 -3.315
15:31 1019 30.09 848 25.04 15.9 60.5 44 3.7 38.7 -84.2 -3.315
15:32 1019 30.09 848 25.04 15.9 60.6 45 4.3 39.7 -84.2 -3.315
15:33 1019 30.09 848 25.04 15.9 60.6 44 3.7 38.7 -84.2 -3.315
15:34 1019 30.09 848 25.04 15.7 60.3 47 4.6 40.3 -84.1 -3.311
15:35 1019 30.09 848 25.04 15.5 59.8 45 3.8 38.9 -84.1 -3.311
15:36 1019 30.09 848 25.04 15.4 59.7 44 3.4 38.1 -84 -3.307
15:37 1019 30.09 848 25.04 15.5 59.9 43 3.2 37.7 -83.4 -3.283
15:38 1019 30.09 848 25.04 15.7 60.3 43 3.4 38.1 -83 -3.268
15:39 1019 30.09 848 25.04 16 60.7 47 4.6 40.3 -82.8 -3.26
15:40 1019 30.09 848 25.04 16.2 61.2 45 4.3 39.7 -82.8 -3.26
15:41 1019 30.09 848 25.04 16.5 61.7 44 4.2 39.5 -82.7 -3.256
15:42 1019 30.09 848 25.04 16.7 62.1 40 3 37.4 -82.7 -3.256
15:43 1018 30.06 848 25.04 16.8 62.3 42 3.9 39 -82.8 -3.26
15:44 1019 30.09 848 25.04 16.9 62.4 43 4.4 39.9 -82.7 -3.256
15:45 1018 30.06 848 25.04 16.8 62.2 37 2.1 35.8 -82.7 -3.256
15:46 1019 30.09 848 25.04 16.7 62 39 2.8 37.1 -82.7 -3.256
15:47 1018 30.06 848 25.04 16.6 61.9 41 3.4 38 -82.7 -3.256
15:48 1018 30.06 848 25.04 16.5 61.7 40 2.9 37.2 -82.5 -3.248
15:49 1019 30.09 848 25.04 16.2 61.1 43 3.6 38.4 -82.3 -3.24
15:50 1019 30.09 848 25.04 15.9 60.7 40 2.3 36.1 -82.2 -3.236
15:51 1019 30.09 848 25.04 15.7 60.2 45 3.8 38.9 -82 -3.228
15:52 1019 30.09 848 25.04 15.5 60 46 4 39.1 -81.9 -3.224
15:53 1018 30.06 848 25.04 15.4 59.7 46 4 39.1 -81.9 -3.224
15:54 1018 30.06 848 25.04 15.4 59.6 46 3.9 39 -81.9 -3.224
15:55 1018 30.06 848 25.04 15.4 59.7 46 3.8 38.8 -81.9 -3.224
15:56 1018 30.06 848 25.04 15.4 59.6 45 3.5 38.3 -82 -3.228
15:57 1018 30.06 848 25.04 15.3 59.5 43 3 37.4 -82 -3.228
15:58 1018 30.06 848 25.04 15.4 59.6 39 1.6 35 -82 -3.228
15:59 1018 30.06 848 25.04 15.7 60.2 41 2.4 36.3 -81.9 -3.224
16:00 1018 30.06 848 25.04 15.9 60.7 40 2.5 36.5 -81.9 -3.224
16:01 1018 30.06 848 25.04 16.2 61.1 42 3.2 37.8 -81.9 -3.224
16:02 1018 30.06 848 25.04 16.5 61.7 36 1.6 34.8 -81.9 -3.224
16:03 1018 30.06 848 25.04 16.8 62.3 38 2.5 36.5 -82 -3.228
16:04 1018 30.06 848 25.04 16.9 62.4 40 3.2 37.7 -82 -3.228
16:05 1018 30.06 848 25.04 16.6 61.9 39 2.9 37.1 -82 -3.228
16:06 1018 30.06 848 25.04 16.3 61.3 36 1.4 34.5 -82 -3.228
16:07 1018 30.06 848 25.04 16 60.8 37 1.4 34.6 -82.1 -3.232
16:08 1018 30.06 848 25.04 15.7 60.3 36 0.6 33.1 -82.1 -3.232
16:09 1018 30.06 848 25.04 15.4 59.8 38 1.1 34 -82.1 -3.232
16:10 1018 30.06 848 25.04 15.3 59.5 37 0.7 33.2 -82.1 -3.232
16:11 1018 30.06 848 25.04 15.2 59.3 37 0.7 33.3 -82.1 -3.232
16:12 1019 30.09 848 25.04 15.1 59.2 38 1.1 34 -82.1 -3.232
16:13 1019 30.09 848 25.04 15.1 59.2 38 0.9 33.6 -82.1 -3.232
16:14 1018 30.06 848 25.04 15.2 59.3 36 0.1 32.2 -82.1 -3.232
16:15 1019 30.09 848 25.04 15.2 59.3 39 1.4 34.6 -82.2 -3.236
16:16 1018 30.06 848 25.04 15.1 59.1 40 1.7 35 -82.2 -3.236
16:17 1018 30.06 848 25.04 15 59 41 1.9 35.4 -82.3 -3.24
16:18 1019 30.09 848 25.04 14.9 58.9 41 2 35.6 -82.2 -3.236
16:19 1018 30.06 848 25.04 14.9 58.8 45 3.1 37.6 -82.2 -3.236
16:20 1018 30.06 848 25.04 14.9 58.8 46 3.3 38 -82.2 -3.236
16:21 1018 30.06 848 25.04 14.9 58.7 47 3.8 38.8 -82.2 -3.236
16:22 1018 30.06 848 25.04 14.8 58.7 48 3.9 39 -82.3 -3.24
16:23 1018 30.06 848 25.04 14.8 58.6 42 2.1 35.8 -82.3 -3.24
16:24 1018 30.06 848 25.04 14.9 58.7 48 4.2 39.5 -82.3 -3.24
16:25 1018 30.06 848 25.04 14.9 58.8 50 4.8 40.6 -82.3 -3.24
16:26 1018 30.06 848 25.04 14.9 58.9 39 1.1 33.9 -82.4 -3.244
16:27 1018 30.06 848 25.04 15 59 43 2.6 36.6 -82.4 -3.244
16:28 1018 30.06 848 25.04 15.1 59.3 42 2.5 36.6 -82.5 -3.248
16:29 1018 30.06 848 25.04 15.1 59.2 40 1.6 34.9 -82.5 -3.248
16:30 1018 30.06 848 25.04 15.1 59.2 40 1.7 35.1 -82.6 -3.252
16:31 1018 30.06 848 25.04 15.2 59.3 38 1 33.7 -82.6 -3.252
16:32 1018 30.06 848 25.04 15.2 59.3 40 1.7 35 -82.7 -3.256
16:33 1018 30.06 848 25.04 15.2 59.4 37 0.6 33.1 -82.8 -3.26
16:34 1018 30.06 848 25.04 15.3 59.5 37 0.7 33.2 -82.7 -3.256
16:35 1018 30.06 848 25.04 15.3 59.5 41 2.1 35.9 -82.7 -3.256
16:36 1018 30.06 848 25.04 15.4 59.6 39 1.5 34.7 -82.7 -3.256
16:37 1019 30.09 848 25.04 15.4 59.7 40 1.9 35.4 -82.6 -3.252
16:38 1018 30.06 848 25.04 15.4 59.8 36 0.7 33.3 -82.6 -3.252
16:39 1018 30.06 848 25.04 15.5 59.9 39 1.8 35.2 -82.6 -3.252
16:40 1018 30.06 848 25.04 15.5 59.9 37 1 33.8 -82.5 -3.248
16:41 1019 30.09 848 25.04 15.6 60.1 36 0.6 33 -82.6 -3.252
16:42 1018 30.06 848 25.04 15.6 60 37 1.1 34 -82.6 -3.252
16:43 1019 30.09 848 25.04 15.7 60.2 33 -0.5 31.1 -82.6 -3.252
16:44 1018 30.06 848 25.04 15.8 60.4 35 0.4 32.6 -82.6 -3.252
16:45 1018 30.06 848 25.04 15.9 60.6 35 0.7 33.3 -82.6 -3.252
16:46 1019 30.09 848 25.04 15.9 60.6 33 -0.3 31.5 -82.6 -3.252
16:47 1019 30.09 848 25.04 16 60.7 34 0 32.1 -82.6 -3.252
16:48 1019 30.09 848 25.04 16.1 60.9 33 0.1 32.1 -82.6 -3.252
16:49 1018 30.06 848 25.04 16.1 61 32 -0.6 31 -82.6 -3.252
16:50 1019 30.09 848 25.04 16.2 61.1 33 0.2 32.3 -82.6 -3.252
16:51 1019 30.09 848 25.04 16.2 61.1 31 -0.9 30.4 -82.6 -3.252
16:52 1019 30.09 848 25.04 16.1 61 34 0.6 33 -82.7 -3.256
16:53 1019 30.09 848 25.04 16 60.8 37 1.3 34.3 -82.7 -3.256
16:54 1019 30.09 848 25.04 15.9 60.7 36 0.9 33.7 -82.7 -3.256
16:55 1019 30.09 848 25.04 15.8 60.5 33 -0.1 31.8 -82.7 -3.256
16:56 1019 30.09 848 25.04 15.8 60.4 37 1.3 34.4 -82.7 -3.256
16:57 1019 30.09 848 25.04 15.7 60.3 38 1.6 34.9 -82.7 -3.256
16:58 1019 30.09 848 25.04 15.7 60.2 37 1 33.9 -82.8 -3.26
16:59 1019 30.09 848 25.04 15.6 60.1 34 -0.2 31.7 -82.9 -3.264
17:00 1019 30.09 848 25.04 15.6 60.2 35 0.5 32.8 -83 -3.268
17:01 1019 30.09 848 25.04 15.7 60.2 38 1.3 34.4 -83.1 -3.272
17:02 1019 30.09 848 25.04 15.7 60.2 33 -0.5 31 -83.1 -3.272
17:03 1019 30.09 848 25.04 15.7 60.2 37 1.2 34.2 -83 -3.268
17:04 1019 30.09 848 25.04 15.7 60.3 38 1.6 34.9 -82.9 -3.264
17:05 1019 30.09 848 25.04 15.7 60.3 32 -0.8 30.6 -82.8 -3.26
17:06 1019 30.09 848 25.04 15.7 60.3 38 1.6 34.8 -82.8 -3.26
17:07 1019 30.09 848 25.04 15.7 60.2 40 2.1 35.9 -82.7 -3.256
17:08 1019 30.09 848 25.04 15.6 60.1 37 1.1 33.9 -82.7 -3.256
17:09 1019 30.09 848 25.04 15.6 60 34 -0.1 31.8 -82.7 -3.256
17:10 1019 30.09 848 25.04 15.5 59.9 37 1.1 33.9 -82.7 -3.256
17:11 1019 30.09 848 25.04 15.5 59.8 36 0.5 32.9 -82.7 -3.256
17:12 1019 30.09 848 25.04 15.4 59.8 36 0.6 33.1 -82.7 -3.256
17:13 1019 30.09 848 25.04 15.4 59.7 37 0.9 33.6 -82.7 -3.256
17:14 1019 30.09 848 25.04 15.3 59.5 36 0.4 32.6 -82.7 -3.256
17:15 1019 30.09 848 25.04 15.2 59.4 37 0.6 33 -82.8 -3.26
17:16 1019 30.09 848 25.04 15.2 59.3 38 1 33.8 -82.8 -3.26
17:17 1019 30.09 848 25.04 15.1 59.1 34 -0.5 31.1 -82.8 -3.26
17:18 1019 30.09 848 25.04 15 59.1 34 -0.7 30.7 -82.9 -3.264
17:19 1019 30.09 848 25.04 15 59.1 35 -0.1 31.9 -82.9 -3.264
17:20 1019 30.09 848 25.04 15 58.9 38 0.7 33.2 -82.9 -3.264
17:21 1019 30.09 848 25.04 14.9 58.8 38 0.9 33.6 -82.9 -3.264
17:22 1019 30.09 848 25.04 14.7 58.4 38 0.8 33.4 -82.9 -3.264
17:23 1019 30.09 848 25.04 14.5 58.2 40 1.3 34.4 -82.8 -3.26
17:24 1019 30.09 848 25.04 14.4 57.9 43 1.9 35.5 -82.8 -3.26
17:25 1019 30.09 848 25.04 14.2 57.6 45 2.4 36.3 -82.8 -3.26
17:26 1019 30.09 848 25.04 14.1 57.3 42 1.5 34.6 -82.8 -3.26
17:27 1019 30.09 848 25.04 14.1 57.3 42 1.6 34.9 -82.8 -3.26
17:28 1019 30.09 848 25.04 14 57.3 43 1.7 35.1 -82.9 -3.264
17:29 1019 30.09 848 25.04 14.1 57.4 40 0.7 33.2 -82.9 -3.264
17:30 1019 30.09 848 25.04 14.3 57.7 36 -0.7 30.8 -83 -3.268
17:31 1019 30.09 848 25.04 14.5 58 36 -0.3 31.4 -83 -3.268
17:32 1019 30.09 848 25.04 14.6 58.3 36 -0.4 31.3 -83.1 -3.272
17:33 1019 30.09 848 25.04 14.6 58.4 38 0.7 33.3 -83.1 -3.272
17:34 1019 30.09 848 25.04 14.6 58.3 39 0.9 33.6 -83.2 -3.276
17:35 1019 30.09 848 25.04 14.6 58.3 36 -0.1 31.8 -83.2 -3.276
17:36 1019 30.09 848 25.04 14.6 58.2 40 1.1 34.1 -83.3 -3.28
17:37 1019 30.09 848 25.04 14.6 58.3 40 1.2 34.2 -83.3 -3.28
17:38 1019 30.09 848 25.04 14.5 58.2 41 1.4 34.5 -83.3 -3.28
17:39 1019 30.09 848 25.04 14.5 58.2 37 0 32.1 -83.4 -3.283
17:40 1019 30.09 848 25.04 14.5 58.2 38 0.5 32.8 -83.4 -3.283
17:41 1019 30.09 848 25.04 14.5 58.2 38 0.6 33 -83.3 -3.28
17:42 1019 30.09 848 25.04 14.6 58.2 39 1 33.9 -83.3 -3.28
17:43 1019 30.09 848 25.04 14.5 58.1 40 1.2 34.1 -83.3 -3.28
17:44 1019 30.09 848 25.04 14.5 58 40 1.1 33.9 -83.3 -3.28
17:45 1019 30.09 848 25.04 14.5 58.1 37 0.2 32.3 -83.3 -3.28
17:46 1019 30.09 848 25.04 14.6 58.2 37 0.2 32.3 -83.4 -3.283
17:47 1019 30.09 848 25.04 14.6 58.2 39 0.7 33.3 -83.4 -3.283
17:48 1019 30.09 848 25.04 14.6 58.2 39 0.8 33.4 -83.5 -3.287
17:49 1019 30.09 848 25.04 14.5 58.2 40 1.1 34 -83.5 -3.287
17:50 1019 30.09 848 25.04 14.5 58.2 40 1.3 34.3 -83.5 -3.287
17:51 1019 30.09 848 25.04 14.6 58.2 38 0.4 32.8 -83.5 -3.287
17:52 1019 30.09 848 25.04 14.7 58.5 37 0.3 32.5 -83.5 -3.287
17:53 1019 30.09 848 25.04 14.9 58.8 39 1 33.8 -83.5 -3.287
17:54 1019 30.09 848 25.04 15.1 59.3 37 0.6 33 -83.6 -3.291
17:55 1019 30.09 848 25.04 15.4 59.7 34 -0.2 31.7 -83.7 -3.295
17:56 1019 30.09 848 25.04 15.5 59.9 32 -0.9 30.4 -83.7 -3.295
17:57 1019 30.09 848 25.04 15.5 59.9 35 0 32 -83.7 -3.295
17:58 1019 30.09 848 25.04 15.5 59.8 33 -0.5 31.2 -83.8 -3.299
17:59 1019 30.09 848 25.04 15.4 59.8 33 -0.5 31.1 -83.8 -3.299
18:00 1019 30.09 848 25.04 15.3 59.5 34 -0.4 31.3 -83.8 -3.299
18:01 1019 30.09 848 25.04 15.3 59.5 35 -0.1 31.8 -83.9 -3.303
18:02 1019 30.09 848 25.04 15.2 59.3 38 1 33.7 -83.9 -3.303
18:03 1019 30.09 848 25.04 15 59 37 0.7 33.2 -83.9 -3.303
18:04 1019 30.09 848 25.04 14.9 58.8 36 -0.1 31.9 -83.8 -3.299
18:05 1019 30.09 848 25.04 14.8 58.6 37 0.4 32.7 -83.8 -3.299
18:06 1019 30.09 848 25.04 14.7 58.5 37 0.2 32.4 -83.8 -3.299
18:07 1019 30.09 848 25.04 14.6 58.2 38 0.5 32.9 -83.8 -3.299
18:08 1019 30.09 848 25.04 14.5 58 38 0.3 32.5 -83.8 -3.299
18:09 1019 30.09 848 25.04 14.4 57.9 41 1.2 34.2 -83.8 -3.299
18:10 1019 30.09 848 25.04 14.3 57.8 39 0.6 33 -83.8 -3.299
18:11 1019 30.09 848 25.04 14.2 57.6 39 0.6 33 -83.8 -3.299
18:12 1019 30.09 848 25.04 14.2 57.6 38 0.2 32.3 -83.8 -3.299
18:13 1019 30.09 848 25.04 14.2 57.5 38 0.1 32.2 -83.8 -3.299
18:14 1019 30.09 848 25.04 14.2 57.5 38 0.2 32.3 -83.8 -3.299
18:15 1019 30.09 848 25.04 14.2 57.5 38 0 32 -83.8 -3.299
18:16 1019 30.09 848 25.04 14.2 57.6 39 0.5 32.9 -83.8 -3.299
18:17 1019 30.09 848 25.04 14.2 57.5 40 0.8 33.4 -83.9 -3.303
18:18 1019 30.09 848 25.04 14.1 57.3 39 0.4 32.7 -83.9 -3.303
18:19 1019 30.09 848 25.04 14.1 57.3 39 0.5 33 -83.9 -3.303
18:20 1019 30.09 848 25.04 14 57.3 40 0.6 33.1 -83.9 -3.303
18:21 1019 30.09 848 25.04 14 57.2 40 0.6 33.2 -83.9 -3.303
18:22 1019 30.09 848 25.04 14 57.1 43 1.6 34.9 -83.9 -3.303
18:23 1019 30.09 848 25.04 13.9 57 43 1.5 34.7 -83.9 -3.303
18:24 1019 30.09 848 25.04 13.8 56.8 42 1 33.9 -84 -3.307
18:25 1019 30.09 848 25.04 13.8 56.8 42 1.3 34.4 -84 -3.307
18:26 1019 30.09 848 25.04 13.7 56.7 43 1.6 34.8 -84 -3.307
18:27 1019 30.09 848 25.04 13.7 56.7 43 1.6 34.9 -84 -3.307
18:28 1019 30.09 848 25.04 13.7 56.6 42 1.1 34 -84 -3.307
18:29 1019 30.09 848 25.04 13.7 56.6 42 1 33.8 -83.9 -3.303
18:30 1019 30.09 848 25.04 13.7 56.7 41 0.8 33.5 -83.9 -3.303
18:31 1019 30.09 848 25.04 13.7 56.6 43 1.4 34.6 -83.9 -3.303
18:32 1019 30.09 848 25.04 13.7 56.6 40 0.6 33 -83.9 -3.303
18:33 1019 30.09 848 25.04 13.7 56.7 41 0.9 33.7 -83.9 -3.303
18:34 1019 30.09 848 25.04 13.8 56.8 41 1 33.8 -83.8 -3.299
18:35 1019 30.09 848 25.04 13.8 56.8 42 1.3 34.3 -83.8 -3.299
18:36 1019 30.09 848 25.04 13.8 56.8 42 1.3 34.3 -83.9 -3.303
18:37 1019 30.09 848 25.04 13.8 56.8 41 0.9 33.6 -83.9 -3.303
18:38 1019 30.09 848 25.04 13.8 56.8 42 1.1 33.9 -83.9 -3.303
18:39 1019 30.09 848 25.04 13.8 56.9 43 1.6 34.8 -83.9 -3.303
18:40 1019 30.09 848 25.04 13.8 56.8 43 1.6 34.8 -83.9 -3.303
18:41 1019 30.09 848 25.04 13.8 56.8 44 1.9 35.5 -83.8 -3.299
18:42 1019 30.09 848 25.04 13.7 56.6 44 1.8 35.3 -83.9 -3.303
18:43 1019 30.09 848 25.04 13.6 56.5 45 2 35.7 -83.9 -3.303
18:44 1019 30.09 848 25.04 13.6 56.4 47 2.7 36.8 -83.9 -3.303
18:45 1019 30.09 848 25.04 13.5 56.3 44 1.6 34.9 -83.9 -3.303
18:46 1019 30.09 848 25.04 13.5 56.3 41 0.6 33.1 -83.9 -3.303
18:47 1019 30.09 848 25.04 13.5 56.3 43 1.4 34.5 -83.9 -3.303
18:48 1019 30.09 848 25.04 13.5 56.3 42 1 33.8 -83.9 -3.303
18:49 1019 30.09 848 25.04 13.5 56.3 43 1.4 34.5 -83.9 -3.303
18:50 1019 30.09 848 25.04 13.5 56.2 43 1.2 34.2 -84 -3.307
18:51 1019 30.09 849 25.07 13.4 56.2 44 1.5 34.7 -83.9 -3.303
18:52 1019 30.09 849 25.07 13.4 56.1 44 1.5 34.7 -83.9 -3.303
18:53 1019 30.09 849 25.07 13.3 56 43 1.2 34.2 -84 -3.307
18:54 1019 30.09 849 25.07 13.3 55.9 44 1.5 34.7 -84 -3.307
18:55 1019 30.09 849 25.07 13.3 55.9 41 0.4 32.7 -84 -3.307
18:56 1019 30.09 849 25.07 13.3 55.9 44 1.2 34.2 -84 -3.307
18:57 1019 30.09 849 25.07 13.3 55.9 41 0.4 32.8 -84 -3.307
18:58 1019 30.09 849 25.07 13.3 55.9 43 1 33.8 -84 -3.307
18:59 1019 30.09 849 25.07 13.3 55.9 44 1.3 34.3 -84.1 -3.311
19:00 1019 30.09 849 25.07 13.3 55.9 42 0.8 33.4 -84.1 -3.311
19:01 1019 30.09 849 25.07 13.3 55.9 44 1.3 34.3 -84 -3.307
19:02 1019 30.09 849 25.07 13.2 55.8 43 1 33.8 -84 -3.307
19:03 1019 30.09 849 25.07 13.2 55.8 43 1.1 34 -84 -3.307
19:04 1019 30.09 849 25.07 13.2 55.7 43 1 33.8 -84 -3.307
19:05 1020 30.12 849 25.07 13.1 55.6 44 1.2 34.1 -84 -3.307
19:06 1020 30.12 849 25.07 13.1 55.6 44 1.2 34.1 -84 -3.307
19:07 1020 30.12 849 25.07 13.1 55.6 42 0.6 33 -84 -3.307
19:08 1020 30.12 849 25.07 13.1 55.7 43 1 33.8 -84 -3.307
19:09 1020 30.12 849 25.07 13.2 55.7 43 0.8 33.5 -84 -3.307
19:10 1020 30.12 849 25.07 13.2 55.8 42 0.8 33.4 -84.1 -3.311
19:11 1020 30.12 849 25.07 13.3 55.9 41 0.5 32.9 -84.1 -3.311
19:12 1020 30.12 849 25.07 13.4 56 43 1.1 34 -84.1 -3.311
19:13 1020 30.12 849 25.07 13.4 56.1 44 1.6 34.9 -84.2 -3.315
19:14 1020 30.12 849 25.07 13.4 56 40 0 32 -84.2 -3.315
19:15 1020 30.12 849 25.07 13.4 56.1 43 1 33.8 -84.2 -3.315
19:16 1020 30.12 849 25.07 13.4 56.1 40 0.3 32.5 -84.2 -3.315
19:17 1020 30.12 849 25.07 13.4 56.2 42 0.8 33.4 -84.2 -3.315
19:18 1020 30.12 849 25.07 13.5 56.2 41 0.4 32.8 -84.2 -3.315
19:19 1020 30.12 849 25.07 13.5 56.3 42 0.8 33.4 -84.2 -3.315
19:20 1020 30.12 849 25.07 13.5 56.3 43 1.3 34.4 -84.2 -3.315
19:21 1020 30.12 849 25.07 13.4 56.1 43 1.1 34 -84.2 -3.315
19:22 1020 30.12 849 25.07 13.3 56 45 1.6 34.8 -84.3 -3.319
19:23 1020 30.12 849 25.07 13.2 55.7 46 1.8 35.2 -84.3 -3.319
19:24 1020 30.12 849 25.07 13 55.4 47 1.9 35.5 -84.4 -3.323
19:25 1020 30.12 849 25.07 12.9 55.2 48 2.3 36.1 -84.4 -3.323
19:26 1020 30.12 849 25.07 12.8 55 48 2 35.7 -84.3 -3.319
19:27 1020 30.12 849 25.07 12.6 54.8 49 2.3 36.1 -84.3 -3.319
19:28 1020 30.12 849 25.07 12.6 54.6 49 2.2 35.9 -84.3 -3.319
19:29 1020 30.12 849 25.07 12.5 54.5 49 2.2 35.9 -84.4 -3.323
19:30 1020 30.12 849 25.07 12.4 54.3 49 1.9 35.5 -84.4 -3.323
19:31 1020 30.12 849 25.07 12.3 54.2 48 1.8 35.3 -84.4 -3.323
19:32 1020 30.12 849 25.07 12.3 54.2 48 1.6 34.8 -84.4 -3.323
19:33 1020 30.12 849 25.07 12.4 54.2 47 1.5 34.6 -84.4 -3.323
19:34 1020 30.12 849 25.07 12.4 54.2 47 1.5 34.6 -84.4 -3.323
19:35 1020 30.12 849 25.07 12.4 54.3 46 1.2 34.2 -84.4 -3.323
19:36 1020 30.12 849 25.07 12.5 54.5 46 1.2 34.2 -84.4 -3.323
19:37 1020 30.12 849 25.07 12.5 54.5 44 0.7 33.3 -84.4 -3.323
19:38 1020 30.12 849 25.07 12.5 54.6 45 1 33.7 -84.4 -3.323
19:39 1020 30.12 849 25.07 12.6 54.6 46 1.3 34.4 -84.4 -3.323
19:40 1020 30.12 849 25.07 12.5 54.5 46 1.3 34.4 -84.4 -3.323
19:41 1020 30.12 849 25.07 12.5 54.4 46 1.1 34 -84.4 -3.323
19:42 1020 30.12 849 25.07 12.4 54.3 49 2 35.5 -84.4 -3.323
19:43 1020 30.12 849 25.07 12.3 54.1 50 2.2 35.9 -84.5 -3.327
19:44 1020 30.12 849 25.07 12.1 53.8 50 2.1 35.8 -84.5 -3.327
19:45 1020 30.12 849 25.07 12 53.6 49 1.7 35.1 -84.5 -3.327
19:46 1020 30.12 849 25.07 12 53.5 49 1.8 35.2 -84.5 -3.327
19:47 1020 30.12 849 25.07 11.9 53.4 50 1.9 35.4 -84.5 -3.327
19:48 1020 30.12 849 25.07 11.9 53.3 48 1.4 34.5 -84.5 -3.327
19:49 1020 30.12 849 25.07 11.9 53.5 49 1.6 34.9 -84.5 -3.327
19:50 1020 30.12 849 25.07 11.9 53.4 49 1.6 34.9 -84.6 -3.331
19:51 1020 30.12 849 25.07 11.8 53.2 49 1.6 34.9 -84.6 -3.331
19:52 1020 30.12 849 25.07 11.8 53.2 51 2.1 35.7 -84.6 -3.331
19:53 1020 30.12 849 25.07 11.6 52.9 51 1.9 35.5 -84.6 -3.331
19:54 1020 30.12 849 25.07 11.5 52.7 52 2.1 35.8 -84.7 -3.335
19:55 1020 30.12 849 25.07 11.5 52.6 52 1.9 35.5 -84.7 -3.335
19:56 1020 30.12 849 25.07 11.5 52.6 51 1.8 35.2 -84.8 -3.339
19:57 1020 30.12 849 25.07 11.5 52.7 52 2 35.6 -84.8 -3.339
19:58 1020 30.12 849 25.07 11.5 52.6 52 2 35.6 -84.9 -3.343
19:59 1020 30.12 849 25.07 11.5 52.6 51 1.7 35 -84.9 -3.343
20:00 1020 30.12 849 25.07 11.5 52.7 51 1.7 35 -85 -3.346
20:01 1020 30.12 849 25.07 11.6 52.8 50 1.7 35 -85 -3.346
20:02 1020 30.12 849 25.07 11.6 52.9 51 1.9 35.4 -85 -3.346
20:03 1020 30.12 849 25.07 11.5 52.8 51 1.8 35.2 -85 -3.346
20:04 1020 30.12 849 25.07 11.5 52.7 52 2.1 35.7 -85.1 -3.35
20:05 1020 30.12 849 25.07 11.5 52.7 50 1.5 34.7 -85.1 -3.35
20:06 1020 30.12 849 25.07 11.6 52.8 50 1.6 34.9 -85.1 -3.35
20:07 1020 30.12 849 25.07 11.6 52.8 50 1.7 35.1 -85 -3.346
20:08 1020 30.12 849 25.07 11.6 52.8 51 1.9 35.5 -84.9 -3.343
20:09 1020 30.12 849 25.07 11.5 52.7 51 1.7 35.1 -84.9 -3.343
20:10 1020 30.12 849 25.07 11.5 52.6 51 1.7 35.1 -84.8 -3.339
20:11 1020 30.12 849 25.07 11.4 52.5 51 1.6 34.9 -84.8 -3.339
20:12 1020 30.12 849 25.07 11.4 52.5 49 1.2 34.2 -84.8 -3.339
20:13 1020 30.12 849 25.07 11.5 52.6 49 1.2 34.2 -84.7 -3.335
20:14 1020 30.12 849 25.07 11.5 52.7 49 1.3 34.3 -84.7 -3.335
20:15 1020 30.12 849 25.07 11.5 52.8 49 1.1 34 -84.7 -3.335
20:16 1020 30.12 849 25.07 11.6 52.8 49 1.2 34.1 -84.7 -3.335
20:17 1020 30.12 849 25.07 11.6 52.9 47 0.8 33.5 -84.7 -3.335
20:18 1020 30.12 849 25.07 11.7 53.1 45 0.1 32.2 -84.7 -3.335
20:19 1020 30.12 849 25.07 11.9 53.4 45 0.3 32.6 -84.7 -3.335
20:20 1020 30.12 849 25.07 11.9 53.5 45 0.3 32.6 -84.8 -3.339
20:21 1020 30.12 849 25.07 11.9 53.5 45 0.3 32.5 -84.8 -3.339
20:22 1020 30.12 849 25.07 11.9 53.4 45 0.3 32.5 -84.8 -3.339
20:23 1020 30.12 850 25.1 11.9 53.3 45 0.3 32.6 -84.8 -3.339
20:24 1020 30.12 850 25.1 11.8 53.2 46 0.5 33 -84.9 -3.343
20:25 1020 30.12 850 25.1 11.7 53 46 0.6 33.1 -84.9 -3.343
20:26 1020 30.12 850 25.1 11.5 52.8 47 0.7 33.3 -84.9 -3.343
20:27 1021 30.15 850 25.1 11.4 52.5 48 0.8 33.5 -84.9 -3.343
20:28 1021 30.15 850 25.1 11.3 52.3 49 0.8 33.5 -84.9 -3.343
20:29 1021 30.15 850 25.1 11.2 52.1 48 0.6 33.1 -84.9 -3.343
20:30 1021 30.15 850 25.1 11 51.9 49 0.9 33.6 -85 -3.346
20:31 1021 30.15 850 25.1 11 51.7 49 0.8 33.5 -85 -3.346
20:32 1021 30.15 850 25.1 10.9 51.6 50 0.9 33.7 -85.1 -3.35
20:33 1021 30.15 850 25.1 10.8 51.4 50 0.9 33.5 -85.1 -3.35
20:34 1021 30.15 850 25.1 10.8 51.4 51 1 33.8 -85.2 -3.354
20:35 1021 30.15 850 25.1 10.6 51.1 51 1.1 33.9 -85.2 -3.354
20:36 1021 30.15 850 25.1 10.5 51 52 1 33.8 -85.2 -3.354
20:37 1021 30.15 850 25.1 10.5 50.8 51 0.9 33.7 -85.2 -3.354
20:38 1021 30.15 850 25.1 10.4 50.7 52 1.1 33.9 -85.2 -3.354
20:39 1021 30.15 850 25.1 10.3 50.5 52 1 33.7 -85.2 -3.354
20:40 1021 30.15 850 25.1 10.2 50.4 53 1.1 33.9 -85.2 -3.354
20:41 1021 30.15 850 25.1 10.2 50.3 53 1.1 33.9 -85.2 -3.354
20:42 1021 30.15 850 25.1 10.1 50.3 53 1 33.9 -85.2 -3.354
20:43 1021 30.15 850 25.1 10.1 50.2 53 0.9 33.7 -85.2 -3.354
20:44 1021 30.15 850 25.1 10 50.1 53 0.8 33.5 -85.3 -3.358
20:45 1021 30.15 850 25.1 10 50 53 0.9 33.7 -85.2 -3.354
20:46 1021 30.15 850 25.1 9.9 49.8 54 1 33.9 -85.2 -3.354
20:47 1021 30.15 850 25.1 9.8 49.6 54 1 33.8 -85.3 -3.358
20:48 1021 30.15 850 25.1 9.7 49.4 54 1 33.8 -85.3 -3.358
20:49 1021 30.15 850 25.1 9.6 49.3 56 1.2 34.1 -85.3 -3.358
20:50 1021 30.15 850 25.1 9.5 49 56 1.1 33.9 -85.3 -3.358
20:51 1021 30.15 850 25.1 9.4 48.9 56 1.1 33.9 -85.3 -3.358
20:52 1021 30.15 850 25.1 9.3 48.8 57 1.3 34.3 -85.3 -3.358
20:53 1021 30.15 850 25.1 9.2 48.6 57 1.2 34.1 -85.4 -3.362
20:54 1021 30.15 850 25.1 9.1 48.4 57 1.1 34.1 -85.4 -3.362
20:55 1021 30.15 850 25.1 9 48.2 57 0.9 33.7 -85.4 -3.362
20:56 1021 30.15 850 25.1 9 48.1 56 0.7 33.2 -85.5 -3.366
20:57 1021 30.15 850 25.1 9 48.2 57 0.9 33.6 -85.5 -3.366
20:58 1021 30.15 850 25.1 9 48.2 57 1.1 34 -85.6 -3.37
20:59 1021 30.15 850 25.1 8.9 48.1 58 1.1 34.1 -85.6 -3.37
21:00 1021 30.15 850 25.1 8.8 47.8 57 0.8 33.4 -85.6 -3.37
21:01 1021 30.15 850 25.1 8.8 47.8 57 0.7 33.2 -85.7 -3.374
21:02 1021 30.15 850 25.1 8.9 47.9 57 0.9 33.7 -85.7 -3.374
21:03 1021 30.15 850 25.1 8.9 47.9 56 0.7 33.2 -85.7 -3.374
21:04 1021 30.15 850 25.1 9 48.1 55 0.5 33 -85.7 -3.374
21:05 1021 30.15 850 25.1 9 48.2 55 0.6 33.1 -85.7 -3.374
21:06 1021 30.15 850 25.1 9 48.2 55 0.5 32.9 -85.7 -3.374
21:07 1021 30.15 850 25.1 9 48.2 55 0.5 32.9 -85.7 -3.374
21:08 1021 30.15 850 25.1 9 48.2 55 0.5 33 -85.7 -3.374
21:09 1021 30.15 850 25.1 8.9 48.1 56 0.5 33 -85.7 -3.374
21:10 1021 30.15 850 25.1 8.8 47.9 55 0.2 32.4 -85.7 -3.374
21:11 1021 30.15 850 25.1 8.9 48.1 53 -0 32 -85.7 -3.374
21:12 1021 30.15 850 25.1 9.1 48.3 53 -0.1 31.9 -85.7 -3.374
21:13 1021 30.15 850 25.1 9.2 48.6 52 -0.1 31.8 -85.7 -3.374
21:14 1021 30.15 850 25.1 9.4 48.9 52 0.1 32.2 -85.7 -3.374
21:15 1021 30.15 850 25.1 9.4 49 53 0.4 32.8 -85.7 -3.374
21:16 1021 30.15 850 25.1 9.4 48.9 53 0.3 32.6 -85.7 -3.374
21:17 1021 30.15 850 25.1 9.3 48.8 53 0.2 32.3 -85.8 -3.378
21:18 1021 30.15 850 25.1 9.3 48.7 52 0.1 32.1 -85.8 -3.378
21:19 1021 30.15 850 25.1 9.3 48.8 52 0 32 -85.8 -3.378
21:20 1021 30.15 850 25.1 9.4 48.9 52 0.2 32.3 -85.9 -3.382
21:21 1021 30.15 850 25.1 9.4 48.8 53 0.2 32.4 -85.9 -3.382
21:22 1021 30.15 850 25.1 9.3 48.7 53 0.1 32.2 -85.9 -3.382
21:23 1021 30.15 850 25.1 9.1 48.4 54 0.3 32.5 -86 -3.386
21:24 1021 30.15 850 25.1 8.9 48 55 0.4 32.8 -86 -3.386
21:25 1021 30.15 850 25.1 8.6 47.4 57 0.6 33 -86 -3.386
21:26 1021 30.15 850 25.1 8.5 47.2 58 0.8 33.4 -86.1 -3.39
21:27 1021 30.15 850 25.1 8.2 46.8 60 0.9 33.6 -86.1 -3.39
21:28 1021 30.15 850 25.1 8 46.4 61 0.9 33.6 -86.1 -3.39
21:29 1021 30.15 850 25.1 7.9 46.1 62 1 33.7 -86.1 -3.39
21:30 1021 30.15 850 25.1 7.7 45.8 62 1 33.8 -86.1 -3.39
21:31 1021 30.15 850 25.1 7.5 45.4 64 1 33.9 -86.1 -3.39
21:32 1021 30.15 850 25.1 7.2 45 65 1.1 34 -86.1 -3.39
21:33 1021 30.15 850 25.1 7.1 44.7 66 1.1 34 -86.1 -3.39
21:34 1021 30.15 850 25.1 6.9 44.5 66 1 33.9 -86.1 -3.39
21:35 1021 30.15 850 25.1 6.9 44.3 67 1.1 34 -86.1 -3.39
21:36 1021 30.15 851 25.13 6.7 44.1 66 0.9 33.6 -86.1 -3.39
21:37 1021 30.15 851 25.13 6.7 44.1 67 1.1 33.9 -86.2 -3.394
21:38 1021 30.15 851 25.13 6.6 44 67 0.9 33.6 -86.2 -3.394
21:39 1021 30.15 851 25.13 6.6 43.9 67 0.9 33.6 -86.3 -3.398
21:40 1021 30.15 851 25.13 6.6 44 67 0.9 33.6 -86.3 -3.398
21:41 1021 30.15 851 25.13 6.6 44 67 0.9 33.6 -86.4 -3.402
21:42 1022 30.18 851 25.13 6.6 43.9 67 0.9 33.5 -86.4 -3.402
21:43 1022 30.18 851 25.13 6.6 43.9 67 0.8 33.5 -86.5 -3.406
21:44 1021 30.15 851 25.13 6.6 44 66 0.7 33.3 -86.5 -3.406
21:45 1022 30.18 851 25.13 6.8 44.2 65 0.7 33.3 -86.6 -3.409
21:46 1022 30.18 851 25.13 6.9 44.5 64 0.6 33.1 -86.6 -3.409
21:47 1022 30.18 851 25.13 7 44.7 63 0.6 33 -86.6 -3.409
21:48 1022 30.18 851 25.13 7.2 44.9 63 0.6 33 -86.6 -3.409
21:49 1022 30.18 851 25.13 7.2 45 62 0.5 33 -86.7 -3.413
21:50 1022 30.18 851 25.13 7.3 45.2 62 0.5 32.8 -86.7 -3.413
21:51 1022 30.18 851 25.13 7.4 45.2 62 0.5 33 -86.7 -3.413
21:52 1022 30.18 851 25.13 7.4 45.2 62 0.6 33 -86.7 -3.413
21:53 1022 30.18 851 25.13 7.3 45.1 62 0.6 33 -86.8 -3.417
21:54 1022 30.18 851 25.13 7.2 45 63 0.6 33.1 -86.8 -3.417
21:55 1022 30.18 851 25.13 7.2 44.9 63 0.7 33.2 -86.8 -3.417
21:56 1022 30.18 851 25.13 7.1 44.8 63 0.6 33.1 -86.8 -3.417
21:57 1022 30.18 851 25.13 7 44.7 64 0.6 33.1 -86.8 -3.417
21:58 1022 30.18 851 25.13 7 44.6 64 0.6 33.1 -86.8 -3.417
21:59 1022 30.18 851 25.13 7 44.6 64 0.7 33.2 -86.9 -3.421
22:00 1022 30.18 851 25.13 6.9 44.4 65 0.7 33.3 -86.9 -3.421
22:01 1022 30.18 851 25.13 6.9 44.5 62 0.1 32.1 -86.9 -3.421
22:02 1022 30.18 851 25.13 7.1 44.9 63 0.6 33 -86.9 -3.421
22:03 1022 30.18 851 25.13 7.2 45 60 -0 32 -87 -3.425
22:04 1022 30.18 851 25.13 7.4 45.3 59 -0 32 -87 -3.425
22:05 1022 30.18 851 25.13 7.6 45.7 59 0.1 32.2 -87 -3.425
22:06 1022 30.18 851 25.13 7.8 46 59 0.2 32.4 -87 -3.425
22:07 1022 30.18 851 25.13 7.8 46.1 57 -0.2 31.6 -87 -3.425
22:08 1022 30.18 851 25.13 7.9 46.3 56 -0.2 31.7 -87.1 -3.429
22:09 1022 30.18 851 25.13 8 46.4 58 0.4 32.6 -87.1 -3.429
22:10 1022 30.18 851 25.13 7.9 46.2 59 0.3 32.6 -87.1 -3.429
22:11 1022 30.18 851 25.13 7.8 46.1 60 0.6 33.1 -87.1 -3.429
22:12 1022 30.18 851 25.13 7.6 45.6 62 0.9 33.5 -87 -3.425
22:13 1022 30.18 851 25.13 7.2 45 64 0.9 33.7 -86.9 -3.421
22:14 1022 30.18 851 25.13 6.9 44.5 64 0.6 33 -86.8 -3.417
22:15 1022 30.18 851 25.13 6.8 44.2 64 0.4 32.8 -86.8 -3.417
22:16 1022 30.18 851 25.13 6.8 44.2 63 0.3 32.6 -86.8 -3.417
22:17 1022 30.18 851 25.13 6.9 44.4 63 0.4 32.8 -86.8 -3.417
22:18 1022 30.18 851 25.13 6.9 44.4 63 0.4 32.8 -86.8 -3.417
22:19 1022 30.18 851 25.13 6.8 44.2 64 0.4 32.8 -86.8 -3.417
22:20 1022 30.18 851 25.13 6.6 43.9 66 0.6 33.1 -86.7 -3.413
22:21 1022 30.18 851 25.13 6.4 43.4 67 0.6 33.1 -86.7 -3.413
22:22 1022 30.18 851 25.13 6.1 42.9 68 0.6 33.1 -86.7 -3.413
22:23 1022 30.18 851 25.13 5.9 42.5 69 0.6 33.1 -86.8 -3.417
22:24 1022 30.18 851 25.13 5.7 42.3 70 0.6 33.1 -86.8 -3.417
22:25 1022 30.18 851 25.13 5.5 42 70 0.6 33.1 -86.8 -3.417
22:26 1022 30.18 851 25.13 5.3 41.6 71 0.6 33.1 -86.8 -3.417
22:27 1022 30.18 851 25.13 5 41 73 0.6 33.1 -86.9 -3.421
22:28 1022 30.18 851 25.13 4.8 40.7 73 0.4 32.7 -86.9 -3.421
22:29 1022 30.18 851 25.13 5 41 71 0.2 32.4 -86.9 -3.421
22:30 1022 30.18 851 25.13 5.3 41.6 70 0.3 32.5 -86.9 -3.421
22:31 1022 30.18 851 25.13 5.5 42 69 0.3 32.5 -86.9 -3.421
22:32 1022 30.18 851 25.13 5.8 42.4 68 0.4 32.6 -86.9 -3.421
22:33 1022 30.18 851 25.13 5.9 42.6 67 0.3 32.5 -87 -3.425
22:34 1022 30.18 851 25.13 5.9 42.5 68 0.4 32.6 -87 -3.425
22:35 1022 30.18 851 25.13 5.3 41.5 71 0.5 32.8 -87 -3.425
22:36 1022 30.18 851 25.13 4.9 40.8 72 0.3 32.5 -87.1 -3.429
22:37 1022 30.18 851 25.13 4.8 40.6 72 0.2 32.4 -87.1 -3.429
22:38 1022 30.18 851 25.13 4.8 40.7 72 0.1 32.2 -87.1 -3.429
22:39 1022 30.18 851 25.13 5 40.9 70 -0 31.9 -87.1 -3.429
22:40 1022 30.18 851 25.13 5.2 41.3 69 0 32 -87.1 -3.429
22:41 1022 30.18 851 25.13 5.4 41.6 69 0.1 32.2 -87.1 -3.429
22:42 1022 30.18 851 25.13 5.5 41.9 68 0.1 32.2 -87.1 -3.429
22:43 1022 30.18 851 25.13 5.6 42.1 69 0.3 32.6 -87.1 -3.429
22:44 1022 30.18 851 25.13 5.3 41.6 71 0.5 32.8 -87.1 -3.429
22:45 1022 30.18 851 25.13 5 40.9 72 0.4 32.7 -87.1 -3.429
22:46 1022 30.18 851 25.13 4.6 40.2 74 0.4 32.7 -87.1 -3.429
22:47 1022 30.18 851 25.13 4.3 39.7 75 0.3 32.6 -87.1 -3.429
22:48 1022 30.18 851 25.13 4.1 39.4 76 0.3 32.5 -87.1 -3.429
22:49 1022 30.18 851 25.13 4.2 39.6 76 0.4 32.7 -87.1 -3.429
22:50 1022 30.18 851 25.13 4.3 39.7 76 0.4 32.8 -87.1 -3.429
22:51 1022 30.18 851 25.13 4.4 39.9 76 0.4 32.8 -87.1 -3.429
22:52 1022 30.18 851 25.13 4.5 40.1 76 0.6 33 -87.1 -3.429
22:53 1022 30.18 851 25.13 4.5 40.2 76 0.7 33.2 -87.1 -3.429
22:54 1022 30.18 851 25.13 4.5 40 77 0.8 33.4 -87.1 -3.429
22:55 1022 30.18 851 25.13 4.4 39.8 77 0.6 33.2 -87.2 -3.433
22:56 1022 30.18 851 25.13 4.3 39.7 77 0.7 33.2 -87.2 -3.433
22:57 1022 30.18 851 25.13 4.2 39.5 75 0.1 32.2 -87.2 -3.433
22:58 1022 30.18 851 25.13 4.4 39.9 75 0.4 32.6 -87.2 -3.433
22:59 1022 30.18 851 25.13 4.4 39.9 75 0.4 32.7 -87.3 -3.437
23:00 1022 30.18 851 25.13 4.4 39.9 75 0.4 32.8 -87.3 -3.437
23:01 1022 30.18 851 25.13 4.3 39.8 76 0.6 33 -87.3 -3.437
23:02 1022 30.18 851 25.13 4.2 39.6 77 0.5 32.9 -87.3 -3.437
23:03 1022 30.18 851 25.13 4 39.3 77 0.5 32.8 -87.3 -3.437
23:04 1022 30.18 851 25.13 3.8 38.9 78 0.4 32.8 -87.3 -3.437
23:05 1022 30.18 851 25.13 3.7 38.7 78 0.3 32.6 -87.3 -3.437
23:06 1022 30.18 851 25.13 3.7 38.7 78 0.2 32.4 -87.3 -3.437
23:07 1022 30.18 851 25.13 4 39.1 77 0.2 32.4 -87.3 -3.437
23:08 1022 30.18 851 25.13 4.1 39.4 76 0.3 32.5 -87.3 -3.437
23:09 1022 30.18 851 25.13 4.3 39.8 75 0.2 32.4 -87.4 -3.441
23:10 1022 30.18 851 25.13 4.5 40.1 74 0.2 32.4 -87.4 -3.441
23:11 1022 30.18 851 25.13 4.7 40.5 73 0.3 32.6 -87.4 -3.441
23:12 1022 30.18 851 25.13 4.8 40.6 73 0.4 32.8 -87.4 -3.441
23:13 1022 30.18 851 25.13 4.8 40.7 74 0.6 33.1 -87.5 -3.445
23:14 1022 30.18 851 25.13 4.8 40.6 75 0.7 33.3 -87.5 -3.445
23:15 1022 30.18 851 25.13 4.6 40.3 76 0.7 33.3 -87.5 -3.445
23:16 1022 30.18 851 25.13 4.5 40 76 0.7 33.2 -87.5 -3.445
23:17 1022 30.18 851 25.13 4.3 39.8 77 0.7 33.3 -87.5 -3.445
23:18 1022 30.18 851 25.13 4.2 39.5 78 0.7 33.3 -87.5 -3.445
23:19 1022 30.18 851 25.13 4.1 39.3 79 0.8 33.4 -87.6 -3.449
23:20 1022 30.18 851 25.13 4 39.2 79 0.7 33.2 -87.6 -3.449
23:21 1022 30.18 851 25.13 4.1 39.4 79 0.7 33.3 -87.6 -3.449
23:22 1022 30.18 851 25.13 4.2 39.5 78 0.7 33.2 -87.6 -3.449
23:23 1022 30.18 851 25.13 4.3 39.7 77 0.7 33.2 -87.6 -3.449
23:24 1022 30.18 851 25.13 4.4 39.9 77 0.7 33.2 -87.6 -3.449
23:25 1022 30.18 851 25.13 4.5 40.1 76 0.7 33.2 -87.6 -3.449
23:26 1022 30.18 851 25.13 4.6 40.4 76 0.7 33.3 -87.6 -3.449
23:27 1022 30.18 851 25.13 4.8 40.6 75 0.7 33.2 -87.6 -3.449
23:28 1022 30.18 851 25.13 4.9 40.8 74 0.6 33.1 -87.6 -3.449
23:29 1022 30.18 851 25.13 4.9 40.9 73 0.5 32.9 -87.6 -3.449
23:30 1022 30.18 851 25.13 5.1 41.2 72 0.5 32.9 -87.6 -3.449
23:31 1022 30.18 851 25.13 5.2 41.3 72 0.6 33 -87.6 -3.449
23:32 1022 30.18 851 25.13 5.2 41.4 71 0.4 32.7 -87.6 -3.449
23:33 1022 30.18 851 25.13 5.3 41.5 71 0.4 32.7 -87.6 -3.449
23:34 1022 30.18 851 25.13 5.4 41.7 70 0.4 32.7 -87.6 -3.449
23:35 1022 30.18 851 25.13 5.4 41.6 71 0.5 32.9 -87.6 -3.449
23:36 1022 30.18 851 25.13 5.2 41.4 71 0.5 32.8 -87.6 -3.449
23:37 1022 30.18 851 25.13 5.1 41.2 71 0.3 32.5 -87.6 -3.449
23:38 1022 30.18 851 25.13 5.1 41.2 70 0.1 32.3 -87.6 -3.449
23:39 1022 30.18 851 25.13 5.2 41.3 70 0.2 32.3 -87.7 -3.453
23:40 1022 30.18 851 25.13 5.1 41.3 71 0.3 32.5 -87.7 -3.453
23:41 1022 30.18 851 25.13 5 41.1 72 0.3 32.6 -87.7 -3.453
23:42 1022 30.18 851 25.13 4.9 40.9 72 0.3 32.6 -87.7 -3.453
23:43 1022 30.18 851 25.13 4.9 40.8 72 0.2 32.4 -87.8 -3.457
23:44 1022 30.18 851 25.13 4.8 40.7 73 0.3 32.6 -87.8 -3.457
23:45 1022 30.18 851 25.13 4.7 40.5 73 0.3 32.5 -87.8 -3.457
23:46 1022 30.18 851 25.13 4.6 40.3 73 0.2 32.4 -87.8 -3.457
23:47 1022 30.18 851 25.13 4.7 40.5 72 0.1 32.2 -87.8 -3.457
23:48 1022 30.18 851 25.13 4.9 40.7 71 0.1 32.1 -87.8 -3.457
23:49 1022 30.18 851 25.13 5 41.1 71 0.3 32.5 -87.8 -3.457
23:50 1022 30.18 851 25.13 5.1 41.1 72 0.4 32.8 -87.8 -3.457
23:51 1022 30.18 851 25.13 5 41 73 0.6 33 -87.8 -3.457
23:52 1022 30.18 851 25.13 4.8 40.7 74 0.6 33.1 -87.8 -3.457
23:53 1022 30.18 851 25.13 4.7 40.5 75 0.6 33.1 -87.8 -3.457
23:54 1022 30.18 851 25.13 4.6 40.2 75 0.5 33 -87.8 -3.457
23:55 1022 30.18 851 25.13 4.5 40.1 75 0.6 33 -87.9 -3.461
23:56 1022 30.18 851 25.13 4.4 40 76 0.6 33.1 -87.9 -3.461
23:57 1022 30.18 851 25.13 4.3 39.7 77 0.7 33.2 -87.9 -3.461
23:58 1022 30.18 851 25.13 4.2 39.5 78 0.7 33.2 -87.9 -3.461
23:59 1022 30.18 851 25.13 4.1 39.3 78 0.6 33.2 -87.9 -3.461
24:00 1022 30.18 851 25.13 3.9 39 79 0.6 33.1 -87.9 -3.461